DE1462 / D-AIAF 7700 Squawk Report (5th of December, 2021)

Aircraft A321 Reg No. D-AIAF Age 6 years old
Model A321 Jet engines 2 First flight 30-01-15
Registered 09-02-15 Rollout 01-15 Delivered 09-02-15
Construction No. 6459 Line No. N/A Series 211(SL)
ADSHEX 3C6426 Airline name Condor Flugdienst Owner Thomas Cook Group
Airfield based Frankfurt-Main~Hessen~D First tracked N/A
Time Lat Lon Altitude Heading Speed Vertical Rate
2021-12-05 09:20:01 GMT 50.040852 8.557607 0 160 3 0
2021-12-05 09:19:48 GMT 50.041096 8.557459 0 160 7 0
2021-12-05 09:19:36 GMT 50.041515 8.557236 0 143 9 0
2021-12-05 09:19:19 GMT 50.041664 8.556345 0 70 12 0
2021-12-05 09:19:08 GMT 50.041477 8.555567 0 70 13 0
2021-12-05 09:18:52 GMT 50.041145 8.554320 0 28 12 0
2021-12-05 09:18:43 GMT 50.040699 8.554100 0 340 12 0
2021-12-05 09:18:29 GMT 50.039967 8.554537 0 348 12 0
2021-12-05 09:18:18 GMT 50.039394 8.554483 0 47 12 0
2021-12-05 09:18:17 GMT 50.039314 8.554410 0 59 12 0
2021-12-05 09:18:07 GMT 50.039085 8.553670 0 70 14 0
2021-12-05 09:17:55 GMT 50.038826 8.552522 0 70 13 0
2021-12-05 09:17:42 GMT 50.038570 8.551483 0 70 13 0
2021-12-05 09:17:35 GMT 50.038429 8.550889 0 67 12 0
2021-12-05 09:17:26 GMT 50.038258 8.550203 0 70 12 0
2021-12-05 09:17:16 GMT 50.038082 8.549405 0 70 11 0
2021-12-05 09:17:05 GMT 50.037849 8.548607 0 25 14 0
2021-12-05 09:16:56 GMT 50.037312 8.548458 1,025 315 15 0
2021-12-05 09:16:45 GMT 50.037022 8.549405 1,025 278 18 0
2021-12-05 09:16:36 GMT 50.036896 8.550592 0 281 21 0
2021-12-05 09:16:25 GMT 50.036858 8.552355 0 250 31 0
2021-12-05 09:16:15 GMT 50.037437 8.554790 0 247 45 0
2021-12-05 09:16:05 GMT 50.038227 8.558097 1,050 250 51 0
2021-12-05 09:15:55 GMT 50.039120 8.561837 1,050 250 68 0
2021-12-05 09:15:43 GMT 50.040386 8.567109 625 250 80 0
2021-12-05 09:15:34 GMT 50.041748 8.572751 575 250 125 -128
2021-12-05 09:15:24 GMT 50.043934 8.581955 600 250 145 -384
2021-12-05 09:15:20 GMT 50.044830 8.585815 700 250 146 -448
2021-12-05 09:15:16 GMT 50.045746 8.589574 700 250 145 -768
2021-12-05 09:15:14 GMT 50.046341 8.592031 725 250 145 -768
2021-12-05 09:15:13 GMT 50.046543 8.592942 725 250 145 -768
2021-12-05 09:15:12 GMT 50.046799 8.593983 750 250 145 -704
2021-12-05 09:15:11 GMT 50.047054 8.595020 775 250 145 -704
2021-12-05 09:15:04 GMT 50.048630 8.601572 925 250 145 -832
2021-12-05 09:15:00 GMT 50.049683 8.605909 925 251 143 -768
2021-12-05 09:14:59 GMT 50.049957 8.606993 925 250 142 -832
2021-12-05 09:14:56 GMT 50.050644 8.609956 975 251 141 -832
2021-12-05 09:14:54 GMT 50.051056 8.611691 1,000 251 141 -704
2021-12-05 09:14:53 GMT 50.051239 8.612703 1,000 250 139 -704
2021-12-05 09:14:51 GMT 50.051662 8.614469 1,025 250 139 -704
2021-12-05 09:14:49 GMT 50.052155 8.616462 1,050 250 139 -704
2021-12-05 09:14:47 GMT 50.052456 8.617884 1,050 250 139 -704
2021-12-05 09:14:46 GMT 50.052704 8.618847 1,075 250 140 -704
2021-12-05 09:14:44 GMT 50.053246 8.621150 1,100 249 140 -768
2021-12-05 09:14:43 GMT 50.053574 8.622388 1,125 249 140 -768
2021-12-05 09:14:42 GMT 50.053711 8.622894 1,125 249 140 -768
2021-12-05 09:14:41 GMT 50.054260 8.625207 1,150 249 140 -832
2021-12-05 09:14:38 GMT 50.054535 8.626219 1,175 250 140 -832
2021-12-05 09:14:37 GMT 50.054901 8.627737 1,200 250 140 -832
2021-12-05 09:14:36 GMT 50.055130 8.628604 1,200 250 140 -832
2021-12-05 09:14:35 GMT 50.055450 8.630050 1,225 251 140 -832
2021-12-05 09:14:34 GMT 50.055679 8.630845 1,250 251 140 -832
2021-12-05 09:14:33 GMT 50.055901 8.631839 1,250 251 140 -832
2021-12-05 09:14:32 GMT 50.056362 8.633843 1,275 251 140 -832
2021-12-05 09:14:30 GMT 50.056553 8.634734 1,300 250 140 -832
2021-12-05 09:14:29 GMT 50.056831 8.635774 1,300 251 140 -832
2021-12-05 09:14:28 GMT 50.057007 8.636555 1,325 251 140 -768
2021-12-05 09:14:27 GMT 50.057236 8.637495 1,325 251 140 -768
2021-12-05 09:14:25 GMT 50.057739 8.639807 1,375 250 140 -832
2021-12-05 09:14:23 GMT 50.058182 8.641638 1,400 250 140 -768
2021-12-05 09:14:22 GMT 50.058414 8.642603 1,400 250 140 -768
2021-12-05 09:14:20 GMT 50.058830 8.644384 1,425 250 140 -832
2021-12-05 09:14:19 GMT 50.059067 8.645301 1,450 250 140 -832
2021-12-05 09:14:18 GMT 50.059296 8.646240 1,450 250 140 -832
2021-12-05 09:14:17 GMT 50.059525 8.647180 1,475 250 140 -768
2021-12-05 09:14:16 GMT 50.059715 8.648096 1,475 249 140 -768
2021-12-05 09:14:14 GMT 50.060181 8.649952 1,500 249 140 -768
2021-12-05 09:14:13 GMT 50.060413 8.650917 1,525 249 140 -832
2021-12-05 09:14:12 GMT 50.060696 8.651956 1,550 249 140 -832
2021-12-05 09:14:11 GMT 50.060928 8.652847 1,550 249 141 -832
2021-12-05 09:14:09 GMT 50.061440 8.654851 1,575 250 140 -768
2021-12-05 09:14:08 GMT 50.061630 8.655781 1,600 250 140 -768
2021-12-05 09:14:07 GMT 50.061905 8.656855 1,600 251 140 -768
2021-12-05 09:14:05 GMT 50.062088 8.657660 1,625 251 140 -768
2021-12-05 09:14:04 GMT 50.062317 8.658600 1,625 251 140 -768
2021-12-05 09:14:03 GMT 50.062790 8.660567 1,650 251 141 -704
2021-12-05 09:14:01 GMT 50.062977 8.661384 1,675 251 141 -704
2021-12-05 09:14:00 GMT 50.063210 8.662349 1,675 251 141 -704
2021-12-05 09:13:59 GMT 50.063416 8.663370 1,700 251 140 -704
2021-12-05 09:13:58 GMT 50.063644 8.664310 1,700 250 141 -768
2021-12-05 09:13:56 GMT 50.064140 8.666357 1,725 251 141 -768
2021-12-05 09:13:55 GMT 50.064323 8.667248 1,750 251 141 -768
2021-12-05 09:13:54 GMT 50.064556 8.668139 1,750 251 141 -768
2021-12-05 09:13:52 GMT 50.065071 8.670440 1,800 251 141 -832
2021-12-05 09:13:50 GMT 50.065338 8.671465 1,800 251 141 -768
2021-12-05 09:13:49 GMT 50.065769 8.673335 1,825 251 141 -768
2021-12-05 09:13:48 GMT 50.065952 8.674300 1,850 251 141 -768
2021-12-05 09:13:44 GMT 50.066757 8.677609 2,225 250 142 -768
2021-12-05 09:13:41 GMT 50.067535 8.681006 1,925 250 141 -768
2021-12-05 09:13:40 GMT 50.067677 8.681575 1,950 250 142 -768
2021-12-05 09:13:37 GMT 50.068466 8.684915 2,000 250 142 -768
2021-12-05 09:13:36 GMT 50.068703 8.685880 2,000 250 141 -768
2021-12-05 09:13:34 GMT 50.069366 8.688668 2,025 251 142 -704
2021-12-05 09:13:32 GMT 50.069641 8.689824 2,050 251 142 -704
2021-12-05 09:13:31 GMT 50.069870 8.690764 2,075 251 142 -704
2021-12-05 09:13:30 GMT 50.070099 8.691776 2,075 251 141 -704
2021-12-05 09:13:29 GMT 50.070332 8.692784 2,075 251 141 -704
2021-12-05 09:13:28 GMT 50.070786 8.694739 2,125 250 141 -768
2021-12-05 09:13:26 GMT 50.070969 8.695606 2,125 250 141 -768
2021-12-05 09:13:25 GMT 50.071217 8.696569 2,125 250 141 -768
2021-12-05 09:13:24 GMT 50.071445 8.697535 2,150 250 142 -704
2021-12-05 09:13:23 GMT 50.071655 8.698498 2,150 250 142 -704
2021-12-05 09:13:22 GMT 50.071865 8.699390 2,175 250 142 -704
2021-12-05 09:13:19 GMT 50.072704 8.702731 2,225 250 141 -768
2021-12-05 09:13:18 GMT 50.072800 8.703196 2,225 250 141 -768
2021-12-05 09:13:17 GMT 50.073074 8.704280 2,225 250 141 -768
2021-12-05 09:13:15 GMT 50.073544 8.706145 2,250 250 141 -768
2021-12-05 09:13:14 GMT 50.073853 8.707532 2,275 250 142 -768
2021-12-05 09:13:13 GMT 50.074055 8.708372 2,300 250 142 -832
2021-12-05 09:13:12 GMT 50.074219 8.708906 2,300 250 142 -832
2021-12-05 09:13:11 GMT 50.074429 8.709931 2,300 250 141 -832
2021-12-05 09:13:10 GMT 50.074940 8.712010 2,350 250 141 -896
2021-12-05 09:13:08 GMT 50.075218 8.713123 2,350 250 141 -896
2021-12-05 09:13:07 GMT 50.075405 8.714014 2,375 250 142 -896
2021-12-05 09:13:05 GMT 50.075638 8.714977 2,375 250 142 -896
2021-12-05 09:13:04 GMT 50.075871 8.715944 2,400 250 142 -896
2021-12-05 09:13:03 GMT 50.076096 8.717001 2,425 250 142 -960
2021-12-05 09:13:01 GMT 50.076614 8.719136 2,450 250 142 -960
2021-12-05 09:13:00 GMT 50.076847 8.720101 2,475 250 142 -960
2021-12-05 09:12:59 GMT 50.077057 8.720904 2,475 250 142 -896
2021-12-05 09:12:58 GMT 50.077286 8.721844 2,500 250 142 -896
2021-12-05 09:12:56 GMT 50.077641 8.723367 2,525 250 142 -960
2021-12-05 09:12:55 GMT 50.077972 8.724879 2,550 251 143 -960
2021-12-05 09:12:54 GMT 50.078201 8.725747 2,550 251 143 -960
2021-12-05 09:12:53 GMT 50.078430 8.726708 2,575 251 143 -960
2021-12-05 09:12:51 GMT 50.078888 8.728710 2,600 251 144 -960
2021-12-05 09:12:50 GMT 50.079128 8.729751 2,625 251 144 -960
2021-12-05 09:12:49 GMT 50.079361 8.730716 2,625 251 145 -960
2021-12-05 09:12:48 GMT 50.079575 8.731746 2,650 251 145 -1024
2021-12-05 09:12:47 GMT 50.079803 8.732758 2,675 251 145 -1024
2021-12-05 09:12:46 GMT 50.080524 8.735912 2,725 251 147 -1024
2021-12-05 09:12:44 GMT 50.080757 8.736952 2,725 252 148 -1024
2021-12-05 09:12:42 GMT 50.080994 8.737962 2,750 252 148 -1024
2021-12-05 09:12:41 GMT 50.081177 8.738956 2,775 252 148 -1024
2021-12-05 09:12:40 GMT 50.081409 8.739921 2,775 252 148 -1024
2021-12-05 09:12:37 GMT 50.082108 8.743113 2,825 252 151 -1024
2021-12-05 09:12:36 GMT 50.082321 8.743961 2,850 252 152 -1024
2021-12-05 09:12:35 GMT 50.082504 8.744900 2,850 252 152 -1024
2021-12-05 09:12:33 GMT 50.083271 8.748606 2,900 252 158 -896
2021-12-05 09:12:30 GMT 50.083557 8.749671 2,925 252 158 -896
2021-12-05 09:12:27 GMT 50.084244 8.753068 2,950 252 161 -832
2021-12-05 09:12:26 GMT 50.084480 8.753951 2,975 253 162 -832
2021-12-05 09:12:24 GMT 50.084930 8.756248 3,000 253 165 -768
2021-12-05 09:12:23 GMT 50.085178 8.757291 3,000 256 169 -704
2021-12-05 09:12:21 GMT 50.085617 8.759573 3,025 256 169 -704
2021-12-05 09:12:20 GMT 50.086063 8.761968 3,075 260 172 -832
2021-12-05 09:12:17 GMT 50.086346 8.763675 3,125 262 173 -1024
2021-12-05 09:12:16 GMT 50.086487 8.764849 3,125 263 174 -1152
2021-12-05 09:12:14 GMT 50.086716 8.767758 3,175 267 175 -1088
2021-12-05 09:12:13 GMT 50.086761 8.769620 3,200 272 176 -896
2021-12-05 09:12:12 GMT 50.086761 8.770776 3,225 276 175 -768
2021-12-05 09:12:10 GMT 50.086761 8.772731 3,250 279 175 -704
2021-12-05 09:12:09 GMT 50.086487 8.775763 3,275 283 176 -384
2021-12-05 09:12:06 GMT 50.086304 8.777498 3,275 286 175 -192
2021-12-05 09:12:05 GMT 50.085972 8.779412 3,275 286 175 -128
2021-12-05 09:12:04 GMT 50.085846 8.780028 3,275 286 174 0
2021-12-05 09:12:03 GMT 50.085480 8.781979 3,275 287 175 64
2021-12-05 09:12:02 GMT 50.084900 8.785054 3,275 287 174 0
2021-12-05 09:11:59 GMT 50.084564 8.786894 3,275 287 174 0
2021-12-05 09:11:58 GMT 50.084297 8.788172 3,275 287 174 0
2021-12-05 09:11:56 GMT 50.083878 8.790473 3,275 287 175 0
2021-12-05 09:11:55 GMT 50.083649 8.791520 3,275 287 175 64
2021-12-05 09:11:54 GMT 50.083412 8.792848 3,275 287 175 0
2021-12-05 09:11:52 GMT 50.082779 8.796363 3,275 287 175 -64
2021-12-05 09:11:46 GMT 50.081726 8.801928 3,275 287 178 0
2021-12-05 09:11:45 GMT 50.081360 8.803807 3,275 287 178 0
2021-12-05 09:11:41 GMT 50.080582 8.807927 3,275 287 181 64
2021-12-05 09:11:40 GMT 50.080261 8.809806 3,275 287 181 64
2021-12-05 09:11:39 GMT 50.080013 8.810961 3,275 287 183 -64
2021-12-05 09:11:35 GMT 50.078979 8.816673 3,275 287 183 -64
2021-12-05 09:11:33 GMT 50.078617 8.818607 3,275 287 182 0
2021-12-05 09:11:32 GMT 50.078110 8.821226 3,275 287 182 -64
2021-12-05 09:11:27 GMT 50.077034 8.826772 3,275 287 182 0
2021-12-05 09:11:24 GMT 50.076523 8.829445 3,275 287 182 0
2021-12-05 09:11:23 GMT 50.076279 8.830912 3,275 287 182 -64
2021-12-05 09:11:22 GMT 50.076050 8.832140 3,275 287 182 0
2021-12-05 09:11:21 GMT 50.075451 8.835235 3,275 287 183 0
2021-12-05 09:11:17 GMT 50.074860 8.838429 3,275 287 183 0
2021-12-05 09:11:14 GMT 50.073959 8.843178 3,275 287 182 -64
2021-12-05 09:11:11 GMT 50.073215 8.847038 3,300 287 182 0
2021-12-05 09:11:08 GMT 50.072617 8.850355 3,300 287 183 -128
2021-12-05 09:11:05 GMT 50.071915 8.854090 3,300 287 183 -128
2021-12-05 09:11:02 GMT 50.071121 8.858395 3,300 287 182 -128
2021-12-05 09:11:01 GMT 50.070923 8.859462 3,300 287 182 -128
2021-12-05 09:11:00 GMT 50.070648 8.860835 3,300 287 182 -64
2021-12-05 09:10:59 GMT 50.070190 8.863294 3,300 286 182 -64
2021-12-05 09:10:57 GMT 50.069958 8.864556 3,300 286 182 -128
2021-12-05 09:10:55 GMT 50.069679 8.865967 3,300 286 182 -128
2021-12-05 09:10:54 GMT 50.069447 8.867303 3,300 286 182 -64
2021-12-05 09:10:53 GMT 50.069164 8.868713 3,300 286 182 -64
2021-12-05 09:10:51 GMT 50.068516 8.872351 3,300 286 182 0
2021-12-05 09:10:50 GMT 50.068516 8.872351 3,300 286 182 0
2021-12-05 09:10:49 GMT 50.068283 8.873538 3,300 286 182 0
2021-12-05 09:10:48 GMT 50.068039 8.874857 3,300 287 183 -64
2021-12-05 09:10:46 GMT 50.067585 8.877399 3,350 287 184 -512
2021-12-05 09:10:43 GMT 50.066837 8.881333 3,350 288 187 -704
2021-12-05 09:10:40 GMT 50.066208 8.884615 3,350 288 187 -704
2021-12-05 09:10:39 GMT 50.065815 8.886603 3,375 288 187 -768
2021-12-05 09:10:36 GMT 50.065018 8.890758 3,450 291 188 -1088
2021-12-05 09:10:33 GMT 50.063873 8.895890 3,500 298 191 -1408
2021-12-05 09:10:30 GMT 50.063232 8.898420 3,550 298 191 -1408
2021-12-05 09:10:27 GMT 50.062138 8.901895 3,600 305 192 -1728
2021-12-05 09:10:26 GMT 50.061676 8.903190 3,625 307 192 -1728
2021-12-05 09:10:23 GMT 50.059479 8.907744 3,750 315 195 -1920
2021-12-05 09:10:20 GMT 50.058273 8.909764 3,800 324 197 -1984
2021-12-05 09:10:18 GMT 50.057343 8.911100 3,975 334 204 -2496
2021-12-05 09:10:15 GMT 50.054535 8.914032 4,000 337 206 -2368
2021-12-05 09:10:14 GMT 50.053802 8.914682 4,050 337 206 -2304
2021-12-05 09:10:12 GMT 50.052456 8.915702 4,100 342 209 -2112
2021-12-05 09:10:10 GMT 50.050266 8.916890 4,175 346 212 -1792
2021-12-05 09:10:09 GMT 50.049335 8.917335 4,225 350 215 -1536
2021-12-05 09:10:08 GMT 50.048496 8.917706 4,250 352 217 -1408
2021-12-05 09:10:04 GMT 50.044189 8.918802 4,400 2 222 -2048
2021-12-05 09:10:00 GMT 50.040161 8.918730 4,475 10 225 -1984
2021-12-05 09:09:57 GMT 50.036999 8.918226 4,675 16 229 -1856
2021-12-05 09:09:54 GMT 50.034298 8.917187 4,675 18 230 -1856
2021-12-05 09:09:53 GMT 50.032745 8.916489 4,725 22 232 -1728
2021-12-05 09:09:51 GMT 50.031235 8.915622 4,775 24 233 -1728
2021-12-05 09:09:50 GMT 50.030155 8.914960 4,800 24 233 -1728
2021-12-05 09:09:49 GMT 50.028759 8.914069 4,825 29 238 -1600
2021-12-05 09:09:47 GMT 50.026794 8.912442 4,950 34 242 -1344
2021-12-05 09:09:44 GMT 50.024414 8.910129 4,950 40 248 -1152
2021-12-05 09:09:43 GMT 50.021637 8.907017 5,025 44 251 -1280
2021-12-05 09:09:38 GMT 50.019077 8.903380 5,100 50 253 -1728
2021-12-05 09:09:37 GMT 50.018326 8.902106 5,125 51 254 -1792
2021-12-05 09:09:35 GMT 50.017166 8.900188 5,175 51 254 -1792
2021-12-05 09:09:33 GMT 50.014374 8.894472 5,225 58 261 -1088
2021-12-05 09:09:32 GMT 50.014374 8.894472 5,250 60 261 -1088
2021-12-05 09:09:31 GMT 50.013721 8.892913 5,250 60 261 -1088
2021-12-05 09:09:30 GMT 50.013119 8.891354 5,275 65 264 -1152
2021-12-05 09:09:28 GMT 50.012283 8.888879 5,300 65 264 -1152
2021-12-05 09:09:27 GMT 50.011395 8.886158 5,325 68 264 -1088
2021-12-05 09:09:24 GMT 50.009953 8.880665 5,425 72 265 -960
2021-12-05 09:09:21 GMT 50.008739 8.875320 5,425 72 266 -832
2021-12-05 09:09:20 GMT 50.008438 8.873773 5,450 72 266 -832
2021-12-05 09:09:18 GMT 50.007671 8.869975 5,475 72 267 -768
2021-12-05 09:09:17 GMT 50.007298 8.867971 5,475 72 269 -768
2021-12-05 09:09:16 GMT 50.006882 8.865822 5,500 72 269 -768
2021-12-05 09:09:15 GMT 50.006458 8.863888 5,500 72 270 -768
2021-12-05 09:09:14 GMT 50.006104 8.862136 5,525 72 270 -768
2021-12-05 09:09:12 GMT 50.005390 8.858395 5,550 72 271 -832
2021-12-05 09:09:11 GMT 50.005016 8.856688 5,575 72 272 -896
2021-12-05 09:09:10 GMT 50.004646 8.854684 5,575 72 272 -896
2021-12-05 09:09:09 GMT 50.004227 8.852740 5,600 72 272 -896
2021-12-05 09:09:08 GMT 50.003586 8.849343 5,625 72 273 -1024
2021-12-05 09:09:05 GMT 50.003036 8.846741 5,650 72 273 -1088
2021-12-05 09:09:04 GMT 50.002411 8.843623 5,675 72 274 -1152
2021-12-05 09:09:03 GMT 50.002075 8.841898 5,700 72 274 -1088
2021-12-05 09:09:02 GMT 50.001251 8.837706 5,750 72 275 -1024
2021-12-05 09:09:00 GMT 50.000839 8.835827 5,750 72 276 -1024
2021-12-05 09:08:59 GMT 50.000549 8.834270 5,775 72 276 -1024
2021-12-05 09:08:56 GMT 49.999924 8.831345 5,800 72 277 -1088
2021-12-05 09:08:54 GMT 49.998505 8.824118 5,875 72 278 -1216
2021-12-05 09:08:51 GMT 49.997910 8.821226 5,900 72 279 -1088
2021-12-05 09:08:50 GMT 49.997543 8.819347 5,925 72 280 -1088
2021-12-05 09:08:49 GMT 49.997009 8.816528 5,950 72 281 -1088
2021-12-05 09:08:48 GMT 49.996590 8.814450 5,950 72 281 -1088
2021-12-05 09:08:46 GMT 49.995708 8.810219 6,000 72 282 -1152
2021-12-05 09:08:45 GMT 49.995289 8.808066 6,025 72 283 -1088
2021-12-05 09:08:44 GMT 49.994064 8.801784 6,075 72 284 -1088
2021-12-05 09:08:42 GMT 49.994064 8.801784 6,075 72 285 -1088
2021-12-05 09:08:41 GMT 49.993660 8.799752 6,100 72 285 -1088
2021-12-05 09:08:40 GMT 49.993195 8.797599 6,125 72 285 -1216
2021-12-05 09:08:39 GMT 49.992828 8.795712 6,150 72 285 -1344
2021-12-05 09:08:38 GMT 49.992462 8.793761 6,175 72 285 -1472
2021-12-05 09:08:37 GMT 49.992050 8.791809 6,200 72 285 -1664
2021-12-05 09:08:35 GMT 49.991238 8.787578 6,250 72 284 -2112
2021-12-05 09:08:34 GMT 49.990860 8.785738 6,300 72 284 -2240
2021-12-05 09:08:33 GMT 49.990402 8.783569 6,325 72 284 -2368
2021-12-05 09:08:32 GMT 49.990036 8.781618 6,375 72 284 -2368
2021-12-05 09:08:31 GMT 49.989330 8.778225 6,450 72 284 -2368
2021-12-05 09:08:29 GMT 49.988956 8.776295 6,475 72 284 -2304
2021-12-05 09:08:28 GMT 49.988388 8.773450 6,625 72 284 -2304
2021-12-05 09:08:25 GMT 49.987793 8.770430 6,600 72 285 -2240
2021-12-05 09:08:23 GMT 49.986816 8.765531 6,700 72 285 -2176
2021-12-05 09:08:22 GMT 49.986420 8.763693 6,725 72 286 -2048
2021-12-05 09:08:21 GMT 49.985653 8.759815 6,800 72 287 -1856
2021-12-05 09:08:19 GMT 49.985325 8.758108 6,825 72 288 -1728
2021-12-05 09:08:18 GMT 49.984909 8.756031 6,850 72 289 -1536
2021-12-05 09:08:17 GMT 49.984535 8.754099 6,875 72 290 -1472
2021-12-05 09:08:16 GMT 49.983673 8.749888 6,900 72 292 -1088
2021-12-05 09:08:14 GMT 49.983261 8.747864 6,925 72 293 -960
2021-12-05 09:08:13 GMT 49.982849 8.745912 6,950 72 294 -960
2021-12-05 09:08:12 GMT 49.982025 8.741865 6,975 72 296 -1024
2021-12-05 09:08:10 GMT 49.981659 8.740058 7,000 72 298 -1024
2021-12-05 09:08:09 GMT 49.981228 8.737917 7,000 72 299 -1088
2021-12-05 09:08:08 GMT 49.980835 8.735938 7,025 72 300 -1152
2021-12-05 09:08:07 GMT 49.980377 8.733697 7,050 72 302 -1216
2021-12-05 09:08:06 GMT 49.979553 8.729454 7,075 72 303 -1344
2021-12-05 09:08:04 GMT 49.979187 8.727770 7,100 72 306 -1408
2021-12-05 09:08:03 GMT 49.978775 8.725674 7,125 72 306 -1472
2021-12-05 09:08:02 GMT 49.978317 8.723578 7,150 72 307 -1728
2021-12-05 09:08:01 GMT 49.977905 8.721482 7,175 72 308 -1856
2021-12-05 09:07:59 GMT 49.977081 8.717507 7,225 72 308 -2304
2021-12-05 09:07:57 GMT 49.976120 8.712664 7,350 72 307 -2880
2021-12-05 09:07:56 GMT 49.975689 8.710451 7,400 72 307 -2880
2021-12-05 09:07:54 GMT 49.974838 8.706376 7,475 72 307 -3008
2021-12-05 09:07:53 GMT 49.974426 8.704280 7,525 72 307 -3008
2021-12-05 09:07:52 GMT 49.973640 8.700355 7,625 72 307 -3008
2021-12-05 09:07:51 GMT 49.972710 8.695976 7,700 72 307 -3008
2021-12-05 09:07:49 GMT 49.972710 8.695976 7,725 72 307 -3008
2021-12-05 09:07:48 GMT 49.972244 8.693674 7,800 72 307 -3072
2021-12-05 09:07:47 GMT 49.971825 8.691522 7,850 72 307 -3072
2021-12-05 09:07:46 GMT 49.971359 8.689221 7,900 72 307 -3072
2021-12-05 09:07:45 GMT 49.970490 8.685126 8,000 72 307 -3008
2021-12-05 09:07:43 GMT 49.970009 8.682762 8,050 72 308 -3008
2021-12-05 09:07:42 GMT 49.969666 8.680934 8,100 72 308 -2944
2021-12-05 09:07:41 GMT 49.969208 8.678838 8,150 72 308 -2944
2021-12-05 09:07:40 GMT 49.968334 8.674523 8,250 72 308 -2880
2021-12-05 09:07:38 GMT 49.967960 8.672593 8,300 72 309 -2752
2021-12-05 09:07:37 GMT 49.967545 8.670514 8,325 72 309 -2688
2021-12-05 09:07:35 GMT 49.966938 8.667322 8,400 72 309 -2688
2021-12-05 09:07:34 GMT 49.965775 8.661780 8,525 72 309 -2816
2021-12-05 09:07:32 GMT 49.965401 8.659750 8,575 72 309 -2816
2021-12-05 09:07:31 GMT 49.964981 8.657598 8,625 72 309 -2816
2021-12-05 09:07:30 GMT 49.964539 8.655420 8,650 72 309 -2880
2021-12-05 09:07:29 GMT 49.963715 8.651372 8,750 72 309 -2816
2021-12-05 09:07:27 GMT 49.963120 8.648409 8,825 72 309 -2816
2021-12-05 09:07:26 GMT 49.962708 8.646313 8,875 72 309 -2816
2021-12-05 09:07:25 GMT 49.962234 8.644088 8,925 72 309 -2816
2021-12-05 09:07:24 GMT 49.961838 8.642048 8,950 72 309 -2816
2021-12-05 09:07:22 GMT 49.961025 8.637926 9,050 72 311 -2816
2021-12-05 09:07:21 GMT 49.960606 8.635774 9,100 72 311 -2816
2021-12-05 09:07:20 GMT 49.960144 8.633519 9,150 72 311 -2816
2021-12-05 09:07:19 GMT 49.959732 8.631423 9,200 72 311 -2816
2021-12-05 09:07:16 GMT 49.958370 8.624713 9,350 72 312 -2752
2021-12-05 09:07:15 GMT 49.957905 8.622560 9,400 72 312 -2752
2021-12-05 09:07:13 GMT 49.957077 8.618413 9,475 72 312 -2816
2021-12-05 09:07:11 GMT 49.956696 8.616399 9,525 72 312 -2816
2021-12-05 09:07:10 GMT 49.956207 8.614149 9,575 72 312 -2816
2021-12-05 09:07:08 GMT 49.955299 8.609570 9,675 72 312 -2816
2021-12-05 09:07:07 GMT 49.954834 8.607354 9,725 72 312 -2816
2021-12-05 09:07:06 GMT 49.954376 8.605186 9,775 72 312 -2816
2021-12-05 09:07:05 GMT 49.953506 8.600922 9,875 72 312 -2880
2021-12-05 09:07:03 GMT 49.953049 8.598536 9,925 72 312 -2880
2021-12-05 09:07:02 GMT 49.952637 8.596657 9,950 72 313 -2880
2021-12-05 09:07:01 GMT 49.952183 8.594426 10,025 72 313 -2880
2021-12-05 09:07:00 GMT 49.951763 8.592274 10,050 72 313 -2880
2021-12-05 09:06:58 GMT 49.950943 8.588273 10,150 71 313 -2944
2021-12-05 09:06:57 GMT 49.950504 8.586261 10,200 71 313 -3008
2021-12-05 09:06:56 GMT 49.949993 8.583960 10,250 71 313 -3008
2021-12-05 09:06:55 GMT 49.949524 8.581696 10,300 71 313 -2944
2021-12-05 09:06:54 GMT 49.948597 8.577279 10,400 71 313 -2880
2021-12-05 09:06:52 GMT 49.948177 8.575200 10,450 71 314 -2816
2021-12-05 09:06:51 GMT 49.947712 8.573048 10,500 71 314 -2880
2021-12-05 09:06:50 GMT 49.947292 8.571118 10,550 71 314 -2880
2021-12-05 09:06:48 GMT 49.946365 8.566734 10,650 71 314 -2880
2021-12-05 09:06:47 GMT 49.945896 8.564437 10,700 71 314 -2880
2021-12-05 09:06:46 GMT 49.945522 8.562507 10,725 71 314 -2880
2021-12-05 09:06:45 GMT 49.944920 8.559760 10,800 71 314 -2816
2021-12-05 09:06:44 GMT 49.944405 8.557385 10,850 71 315 -2816
2021-12-05 09:06:42 GMT 49.943527 8.553218 10,950 71 315 -2688
2021-12-05 09:06:41 GMT 49.943069 8.551049 10,975 71 316 -2688
2021-12-05 09:06:40 GMT 49.942566 8.548737 11,025 71 316 -2624
2021-12-05 09:06:38 GMT 49.942108 8.546351 11,075 71 316 -2560
2021-12-05 09:06:37 GMT 49.941334 8.542761 11,150 71 316 -2560
2021-12-05 09:06:36 GMT 49.940914 8.540831 11,200 72 317 -2560
2021-12-05 09:06:34 GMT 49.939865 8.535799 11,300 71 317 -2496
2021-12-05 09:06:33 GMT 49.938858 8.531028 11,375 71 318 -2368
2021-12-05 09:06:31 GMT 49.938633 8.529993 11,400 71 318 -2368
2021-12-05 09:06:30 GMT 49.938213 8.527840 11,425 71 319 -2368
2021-12-05 09:06:29 GMT 49.937714 8.525607 11,475 71 319 -2432
2021-12-05 09:06:26 GMT 49.936073 8.517819 11,625 72 320 -2432
2021-12-05 09:06:25 GMT 49.935608 8.515561 11,650 72 321 -2432
2021-12-05 09:06:24 GMT 49.935150 8.513392 11,700 72 321 -2432
2021-12-05 09:06:23 GMT 49.934769 8.511509 11,725 72 321 -2432
2021-12-05 09:06:22 GMT 49.933186 8.504086 11,825 72 322 -2432
2021-12-05 09:06:20 GMT 49.933186 8.504086 11,875 72 322 -2432
2021-12-05 09:06:19 GMT 49.932999 8.503057 11,900 72 323 -2432
2021-12-05 09:06:18 GMT 49.932495 8.500671 11,950 72 323 -2432
2021-12-05 09:06:15 GMT 49.930904 8.493025 12,075 72 324 -2496
2021-12-05 09:06:13 GMT 49.930435 8.490697 12,125 72 324 -2560
2021-12-05 09:06:12 GMT 49.930023 8.488745 12,175 72 324 -2624
2021-12-05 09:06:11 GMT 49.929611 8.486722 12,200 72 325 -2624
2021-12-05 09:06:08 GMT 49.928207 8.479961 12,325 71 326 -2624
2021-12-05 09:06:07 GMT 49.927689 8.477615 12,375 72 326 -2688
2021-12-05 09:06:06 GMT 49.927231 8.475284 12,425 72 326 -2688
2021-12-05 09:06:05 GMT 49.926762 8.473057 12,475 72 326 -2752
2021-12-05 09:06:04 GMT 49.925812 8.468724 12,575 72 326 -2816
2021-12-05 09:06:02 GMT 49.925365 8.466673 12,600 72 326 -2816
2021-12-05 09:06:01 GMT 49.924900 8.464446 12,650 72 326 -2816
2021-12-05 09:05:59 GMT 49.923923 8.459770 12,750 72 327 -2816
2021-12-05 09:05:57 GMT 49.922974 8.455136 12,850 72 327 -2816
2021-12-05 09:05:55 GMT 49.921921 8.450119 12,950 72 328 -2688
2021-12-05 09:05:54 GMT 49.921646 8.448920 12,975 72 328 -2688
2021-12-05 09:05:53 GMT 49.920502 8.443282 13,100 72 329 -2560
2021-12-05 09:05:51 GMT 49.920105 8.441434 13,125 72 329 -2560
2021-12-05 09:05:50 GMT 49.919640 8.439133 13,175 72 330 -2496
2021-12-05 09:05:49 GMT 49.919266 8.437283 13,200 72 329 -2496
2021-12-05 09:05:48 GMT 49.918755 8.434902 13,250 72 330 -2432
2021-12-05 09:05:47 GMT 49.917873 8.430374 13,325 73 330 -2304
2021-12-05 09:05:45 GMT 49.917404 8.428073 13,375 73 331 -2176
2021-12-05 09:05:44 GMT 49.916794 8.425068 13,425 73 332 -2112
2021-12-05 09:05:43 GMT 49.916382 8.422876 13,450 74 333 -2176
2021-12-05 09:05:42 GMT 49.916149 8.421540 13,475 74 333 -2176
2021-12-05 09:05:41 GMT 49.915283 8.416539 13,550 75 333 -2176
2021-12-05 09:05:38 GMT 49.914459 8.411697 13,625 76 334 -2240
2021-12-05 09:05:37 GMT 49.914101 8.409515 13,650 77 334 -2240
2021-12-05 09:05:35 GMT 49.913357 8.404615 13,750 78 333 -2304
2021-12-05 09:05:34 GMT 49.913078 8.402537 13,775 78 334 -2304
2021-12-05 09:05:33 GMT 49.912750 8.400161 13,825 79 334 -2368
2021-12-05 09:05:32 GMT 49.912426 8.397860 13,850 79 334 -2368
2021-12-05 09:05:31 GMT 49.912125 8.395362 13,900 80 333 -2368
2021-12-05 09:05:30 GMT 49.911758 8.392326 13,950 80 334 -2368
2021-12-05 09:05:28 GMT 49.911346 8.388567 14,000 81 334 -2368
2021-12-05 09:05:27 GMT 49.911118 8.386182 14,050 81 334 -2304
2021-12-05 09:05:26 GMT 49.910843 8.383580 14,100 81 334 -2240
2021-12-05 09:05:25 GMT 49.910610 8.381084 14,125 81 334 -2240
2021-12-05 09:05:22 GMT 49.909927 8.374112 14,225 81 334 -2176
2021-12-05 09:05:21 GMT 49.909607 8.370859 14,275 81 335 -2176
2021-12-05 09:05:19 GMT 49.909164 8.366237 14,325 81 335 -2176
2021-12-05 09:05:18 GMT 49.908932 8.363862 14,400 81 335 -2112
2021-12-05 09:05:17 GMT 49.908691 8.361318 14,425 81 335 -2112
2021-12-05 09:05:16 GMT 49.908466 8.359111 14,475 81 336 -2112
2021-12-05 09:05:15 GMT 49.908283 8.356736 14,500 81 336 -2112
2021-12-05 09:05:14 GMT 49.907822 8.352067 14,575 81 336 -2112
2021-12-05 09:05:12 GMT 49.907581 8.349535 14,600 81 336 -2112
2021-12-05 09:05:11 GMT 49.907364 8.347296 14,625 81 337 -2112
2021-12-05 09:05:10 GMT 49.907135 8.344694 14,675 81 337 -2176
2021-12-05 09:05:08 GMT 49.906631 8.339635 14,750 81 337 -2176
2021-12-05 09:05:07 GMT 49.906403 8.337250 14,800 81 337 -2176
2021-12-05 09:05:06 GMT 49.906185 8.334986 14,825 81 338 -2176
2021-12-05 09:05:05 GMT 49.905952 8.332610 14,850 81 338 -2176
2021-12-05 09:05:04 GMT 49.905716 8.330311 14,900 81 338 -2176
2021-12-05 09:05:03 GMT 49.905254 8.325410 14,975 81 338 -2240
2021-12-05 09:05:01 GMT 49.904984 8.322650 15,000 81 339 -2240
2021-12-05 09:05:00 GMT 49.904884 8.321327 15,025 81 339 -2240
2021-12-05 09:04:59 GMT 49.904617 8.318819 15,075 81 339 -2240
2021-12-05 09:04:57 GMT 49.904091 8.312939 15,150 81 339 -2240
2021-12-05 09:04:56 GMT 49.903839 8.310434 15,200 81 340 -2240
2021-12-05 09:04:55 GMT 49.903610 8.308266 15,225 81 340 -2240
2021-12-05 09:04:54 GMT 49.903473 8.306821 15,250 81 340 -2240
2021-12-05 09:04:53 GMT 49.903255 8.304254 15,300 81 340 -2304
2021-12-05 09:04:52 GMT 49.902924 8.301038 15,350 81 340 -2304
2021-12-05 09:04:50 GMT 49.902512 8.296412 15,425 81 340 -2368
2021-12-05 09:04:49 GMT 49.902279 8.293861 15,450 81 340 -2432
2021-12-05 09:04:48 GMT 49.902008 8.291353 15,500 81 340 -2432
2021-12-05 09:04:45 GMT 49.901550 8.286293 15,600 81 341 -2432
2021-12-05 09:04:44 GMT 49.901321 8.283908 15,625 81 341 -2368
2021-12-05 09:04:42 GMT 49.900772 8.278054 15,725 81 341 -2368
2021-12-05 09:04:41 GMT 49.900600 8.275749 15,750 82 341 -2368
2021-12-05 09:04:40 GMT 49.900459 8.274338 15,775 82 341 -2304
2021-12-05 09:04:39 GMT 49.900227 8.271889 15,825 82 342 -2240
2021-12-05 09:04:37 GMT 49.899719 8.266417 15,900 81 342 -2176
2021-12-05 09:04:35 GMT 49.899296 8.261496 15,975 81 343 -2112
2021-12-05 09:04:34 GMT 49.899078 8.259189 16,025 81 343 -2112
2021-12-05 09:04:33 GMT 49.898830 8.256597 16,050 81 343 -2112
2021-12-05 09:04:31 GMT 49.898365 8.251252 16,125 81 344 -2240
2021-12-05 09:04:29 GMT 49.897900 8.246130 16,225 81 344 -2368
2021-12-05 09:04:27 GMT 49.897484 8.241528 16,300 81 344 -2432
2021-12-05 09:04:26 GMT 49.897297 8.239301 16,325 81 344 -2432
2021-12-05 09:04:25 GMT 49.897064 8.236783 16,375 81 344 -2368
2021-12-05 09:04:24 GMT 49.896790 8.234108 16,400 82 345 -2304
2021-12-05 09:04:23 GMT 49.896599 8.231729 16,450 82 345 -2240
2021-12-05 09:04:22 GMT 49.896378 8.229193 16,475 82 345 -2176
2021-12-05 09:04:20 GMT 49.895901 8.224157 16,550 82 346 -2048
2021-12-05 09:04:19 GMT 49.895691 8.221604 16,600 82 346 -2048
2021-12-05 09:04:18 GMT 49.895481 8.219258 16,625 82 347 -2048
2021-12-05 09:04:17 GMT 49.895203 8.216437 16,675 82 347 -2112
2021-12-05 09:04:16 GMT 49.895016 8.213988 16,700 82 347 -2112
2021-12-05 09:04:15 GMT 49.894501 8.208450 16,775 82 348 -2176
2021-12-05 09:04:13 GMT 49.894272 8.205992 16,825 82 348 -2176
2021-12-05 09:04:12 GMT 49.894043 8.203535 16,850 82 348 -2240
2021-12-05 09:04:11 GMT 49.893860 8.201077 16,900 82 349 -2240
2021-12-05 09:04:10 GMT 49.893631 8.198620 16,925 82 349 -2304
2021-12-05 09:04:09 GMT 49.893402 8.196090 16,975 82 349 -2304
2021-12-05 09:04:07 GMT 49.892944 8.191175 17,050 82 349 -2304
2021-12-05 09:04:06 GMT 49.892826 8.189788 17,075 82 350 -2304
2021-12-05 09:04:05 GMT 49.892532 8.186477 17,125 82 350 -2240
2021-12-05 09:04:04 GMT 49.892315 8.184072 17,150 82 350 -2240
2021-12-05 09:04:03 GMT 49.892128 8.181622 17,175 82 350 -2176
2021-12-05 09:04:02 GMT 49.891895 8.179173 17,225 82 350 -2176
2021-12-05 09:04:00 GMT 49.891430 8.173902 17,300 82 350 -2048
2021-12-05 09:03:59 GMT 49.891243 8.171453 17,325 82 350 -2048
2021-12-05 09:03:58 GMT 49.890976 8.168841 17,375 82 350 -2048
2021-12-05 09:03:57 GMT 49.890778 8.166479 17,400 82 350 -2112
2021-12-05 09:03:56 GMT 49.890358 8.161728 17,475 82 350 -2176
2021-12-05 09:03:54 GMT 49.890152 8.159156 17,500 82 350 -2240
2021-12-05 09:03:53 GMT 49.889923 8.156698 17,550 82 350 -2176
2021-12-05 09:03:52 GMT 49.889694 8.153952 17,575 82 350 -2176
2021-12-05 09:03:51 GMT 49.889465 8.151711 17,600 82 351 -2176
2021-12-05 09:03:50 GMT 49.889236 8.148964 17,650 82 351 -2112
2021-12-05 09:03:49 GMT 49.888824 8.144507 17,725 82 351 -2112
2021-12-05 09:03:47 GMT 49.888504 8.140869 17,775 82 352 -2112
2021-12-05 09:03:45 GMT 49.888309 8.138494 17,800 82 352 -2112
2021-12-05 09:03:44 GMT 49.888092 8.135882 17,825 82 353 -2112
2021-12-05 09:03:43 GMT 49.887863 8.133641 17,875 82 353 -2112
2021-12-05 09:03:41 GMT 49.887474 8.128992 18,000 82 354 -2176
2021-12-05 09:03:38 GMT 49.886589 8.118971 18,100 82 355 -2304
2021-12-05 09:03:35 GMT 49.886078 8.113114 18,150 82 355 -2368
2021-12-05 09:03:34 GMT 49.885941 8.111596 18,175 82 354 -2432
2021-12-05 09:03:33 GMT 49.885757 8.109067 18,225 82 354 -2496
2021-12-05 09:03:32 GMT 49.885529 8.106320 18,275 82 355 -2560
2021-12-05 09:03:30 GMT 49.885071 8.100971 18,350 82 355 -2624
2021-12-05 09:03:29 GMT 49.884842 8.098514 18,400 82 354 -2752
2021-12-05 09:03:28 GMT 49.884632 8.096107 18,450 82 355 -2816
2021-12-05 09:03:27 GMT 49.884430 8.093165 18,500 82 355 -2816
2021-12-05 09:03:26 GMT 49.884212 8.091060 18,550 82 354 -2880
2021-12-05 09:03:24 GMT 49.883789 8.085865 18,650 82 354 -2944
2021-12-05 09:03:23 GMT 49.883606 8.083335 18,700 83 354 -3008
2021-12-05 09:03:22 GMT 49.883423 8.081095 18,750 83 354 -3008
2021-12-05 09:03:21 GMT 49.883240 8.078565 18,800 83 354 -3008
2021-12-05 09:03:19 GMT 49.882816 8.073392 18,900 83 354 -2944
2021-12-05 09:03:18 GMT 49.882599 8.070759 18,950 83 354 -2880
2021-12-05 09:03:17 GMT 49.882416 8.068012 19,000 83 354 -2816
2021-12-05 09:03:16 GMT 49.882233 8.065772 19,050 83 354 -2816
2021-12-05 09:03:15 GMT 49.882050 8.063242 19,075 83 354 -2816
2021-12-05 09:03:13 GMT 49.881546 8.057171 19,200 83 354 -2816
2021-12-05 09:03:12 GMT 49.881470 8.055799 19,225 83 354 -2816
2021-12-05 09:03:10 GMT 49.880997 8.049654 19,325 83 354 -2752
2021-12-05 09:03:08 GMT 49.880630 8.044739 19,425 83 354 -2624
2021-12-05 09:03:07 GMT 49.880447 8.042064 19,475 83 355 -2624
2021-12-05 09:03:06 GMT 49.880264 8.039824 19,500 83 355 -2624
2021-12-05 09:03:04 GMT 49.879932 8.034643 19,600 83 355 -2624
2021-12-05 09:03:03 GMT 49.879745 8.032119 19,650 83 355 -2624
2021-12-05 09:03:00 GMT 49.879257 8.025440 19,750 83 355 -2688
2021-12-05 09:02:59 GMT 49.879002 8.021504 19,800 83 355 -2688
2021-12-05 09:02:58 GMT 49.878799 8.019152 19,875 83 355 -2688
2021-12-05 09:02:57 GMT 49.878616 8.016622 19,925 83 355 -2688
2021-12-05 09:02:56 GMT 49.878479 8.014310 19,950 83 355 -2688
2021-12-05 09:02:55 GMT 49.878304 8.011706 20,000 83 355 -2688
2021-12-05 09:02:54 GMT 49.878117 8.009182 20,050 83 355 -2688
2021-12-05 09:02:53 GMT 49.877792 8.004769 20,125 83 355 -2688
2021-12-05 09:02:50 GMT 49.877380 7.998408 20,275 83 356 -2624
2021-12-05 09:02:47 GMT 49.876766 7.989436 20,400 84 355 -2624
2021-12-05 09:02:45 GMT 49.876556 7.986771 20,450 84 356 -2624
2021-12-05 09:02:44 GMT 49.876347 7.983349 20,500 84 356 -2560
2021-12-05 09:02:43 GMT 49.876190 7.980989 20,550 84 356 -2560
2021-12-05 09:02:42 GMT 49.876007 7.978676 20,575 84 356 -2560
2021-12-05 09:02:41 GMT 49.875648 7.973253 20,675 84 357 -2624
2021-12-05 09:02:39 GMT 49.875462 7.970730 20,725 84 357 -2624
2021-12-05 09:02:38 GMT 49.875324 7.967909 20,775 84 357 -2624
2021-12-05 09:02:37 GMT 49.875137 7.965522 20,800 84 357 -2624
2021-12-05 09:02:36 GMT 49.874954 7.962920 20,850 84 357 -2624
2021-12-05 09:02:33 GMT 49.874485 7.955438 20,975 84 358 -2560
2021-12-05 09:02:32 GMT 49.874313 7.952728 21,025 84 358 -2496
2021-12-05 09:02:31 GMT 49.874176 7.950488 21,075 84 358 -2496
2021-12-05 09:02:30 GMT 49.873856 7.945862 21,150 84 358 -2432
2021-12-05 09:02:28 GMT 49.873581 7.941814 21,200 84 359 -2432
2021-12-05 09:02:27 GMT 49.873535 7.940513 21,225 84 359 -2432
2021-12-05 09:02:25 GMT 49.873180 7.935247 21,300 84 359 -2368
2021-12-05 09:02:23 GMT 49.872803 7.929744 21,400 84 360 -2368
2021-12-05 09:02:22 GMT 49.872623 7.926858 21,425 84 360 -2304
2021-12-05 09:02:21 GMT 49.872482 7.924612 21,475 84 360 -2304
2021-12-05 09:02:20 GMT 49.872299 7.922082 21,500 84 361 -2304
2021-12-05 09:02:19 GMT 49.872162 7.919480 21,550 83 362 -2304
2021-12-05 09:02:17 GMT 49.871784 7.914239 21,625 83 362 -2240
2021-12-05 09:02:16 GMT 49.871613 7.911819 21,650 83 363 -2176
2021-12-05 09:02:14 GMT 49.871086 7.903921 21,775 83 363 -2112
2021-12-05 09:02:12 GMT 49.870880 7.901194 21,800 82 364 -2112
2021-12-05 09:02:11 GMT 49.870651 7.898664 21,850 82 365 -2112
2021-12-05 09:02:10 GMT 49.870434 7.895904 21,875 81 365 -2112
2021-12-05 09:02:09 GMT 49.870239 7.893460 21,900 81 365 -2112
2021-12-05 09:02:07 GMT 49.869827 7.888545 21,975 80 365 -2048
2021-12-05 09:02:06 GMT 49.869598 7.886105 22,000 80 366 -2048
2021-12-05 09:02:05 GMT 49.869324 7.883630 22,050 79 367 -2112
2021-12-05 09:02:03 GMT 49.868759 7.878311 22,125 78 367 -2176
2021-12-05 09:02:01 GMT 49.868134 7.873294 22,175 77 368 -2112
2021-12-05 09:02:00 GMT 49.867783 7.870591 22,225 77 368 -2048
2021-12-05 09:01:58 GMT 49.867218 7.866572 22,275 76 368 -1984
2021-12-05 09:01:57 GMT 49.867035 7.865344 22,300 76 369 -1984
2021-12-05 09:01:55 GMT 49.866104 7.859530 23,325 73 373 -2048
2021-12-05 09:01:54 GMT 49.865662 7.856815 22,400 74 370 -1920
2021-12-05 09:01:53 GMT 49.865269 7.854408 22,425 74 370 -1920
2021-12-05 09:01:52 GMT 49.864792 7.851755 22,450 74 371 -1856
2021-12-05 09:01:50 GMT 49.864059 7.847635 22,500 73 371 -1856
2021-12-05 09:01:48 GMT 49.863098 7.842504 22,575 73 372 -1920
2021-12-05 09:01:47 GMT 49.862411 7.838962 22,625 73 372 -1984
2021-12-05 09:01:46 GMT 49.861961 7.836518 22,650 73 372 -1984
2021-12-05 09:01:44 GMT 49.860947 7.831300 22,725 73 372 -2112
2021-12-05 09:01:43 GMT 49.860378 7.828353 22,750 73 372 -2176
2021-12-05 09:01:42 GMT 49.859962 7.826051 22,800 73 372 -2176
2021-12-05 09:01:41 GMT 49.859680 7.824567 22,825 73 372 -2240
2021-12-05 09:01:39 GMT 49.858566 7.818796 22,900 73 372 -2240
2021-12-05 09:01:38 GMT 49.858063 7.816267 22,950 73 372 -2304
2021-12-05 09:01:36 GMT 49.857285 7.812436 23,000 73 372 -2304
2021-12-05 09:01:35 GMT 49.856598 7.808822 23,050 73 373 -2240
2021-12-05 09:01:33 GMT 49.855350 7.802594 23,150 73 373 -2176
2021-12-05 09:01:30 GMT 49.853943 7.795378 23,325 73 373 -2048
2021-12-05 09:01:27 GMT 49.852699 7.789084 23,325 73 373 -2048
2021-12-05 09:01:26 GMT 49.851929 7.785114 23,375 73 373 -2048
2021-12-05 09:01:25 GMT 49.851379 7.782296 23,425 72 373 -2048
2021-12-05 09:01:23 GMT 49.850281 7.776947 23,500 72 374 -2048
2021-12-05 09:01:22 GMT 49.849766 7.774312 23,525 72 374 -2048
2021-12-05 09:01:21 GMT 49.849274 7.771888 23,575 72 374 -1984
2021-12-05 09:01:19 GMT 49.848461 7.767631 23,625 72 375 -1984
2021-12-05 09:01:17 GMT 49.847260 7.761624 23,700 72 375 -1984
2021-12-05 09:01:15 GMT 49.846207 7.756492 23,775 72 375 -1920
2021-12-05 09:01:13 GMT 49.845200 7.751360 23,825 72 376 -1856
2021-12-05 09:01:11 GMT 49.844193 7.746229 23,975 72 377 -1792
2021-12-05 09:01:08 GMT 49.842636 7.738495 23,975 72 377 -1792
2021-12-05 09:01:07 GMT 49.842083 7.735785 24,025 72 378 -1728
2021-12-05 09:01:05 GMT 49.840874 7.729624 24,100 72 379 -1600
2021-12-05 09:01:02 GMT 49.839336 7.722127 24,125 72 379 -1600
2021-12-05 09:01:01 GMT 49.839058 7.720494 24,175 72 382 -1280
2021-12-05 09:00:58 GMT 49.837292 7.711660 24,250 72 383 -1152
2021-12-05 09:00:57 GMT 49.836731 7.708933 24,250 72 383 -1152
2021-12-05 09:00:55 GMT 49.835659 7.703569 24,300 72 384 -1152
2021-12-05 09:00:52 GMT 49.833706 7.694141 24,375 72 389 -1280
2021-12-05 09:00:49 GMT 49.832447 7.687832 24,400 72 389 -1280
2021-12-05 09:00:47 GMT 49.831329 7.682407 24,450 72 390 -1344
2021-12-05 09:00:44 GMT 49.829514 7.673802 24,550 72 393 -1920
2021-12-05 09:00:41 GMT 49.828171 7.667301 24,675 72 393 -1920
2021-12-05 09:00:38 GMT 49.826488 7.659178 24,675 71 393 -2560
2021-12-05 09:00:37 GMT 49.825932 7.656506 24,750 71 391 -3072
2021-12-05 09:00:35 GMT 49.824646 7.650460 24,875 72 389 -3648
2021-12-05 09:00:33 GMT 49.823742 7.646113 24,975 72 388 -3840
2021-12-05 09:00:32 GMT 49.822624 7.640843 25,125 72 387 -3904
2021-12-05 09:00:30 GMT 49.822311 7.639401 25,150 72 387 -3904
2021-12-05 09:00:29 GMT 49.821716 7.636365 25,225 72 387 -3840
2021-12-05 09:00:28 GMT 49.820938 7.632679 25,300 72 387 -3264
2021-12-05 09:00:26 GMT 49.819656 7.626319 25,450 72 388 -2816
2021-12-05 09:00:24 GMT 49.818764 7.621988 25,500 72 390 -2368
2021-12-05 09:00:23 GMT 49.818008 7.618368 25,550 73 390 -2240
2021-12-05 09:00:21 GMT 49.816994 7.613154 25,625 73 392 -1920
2021-12-05 09:00:19 GMT 49.816498 7.610634 25,650 73 393 -1728
2021-12-05 09:00:18 GMT 49.815948 7.607960 25,675 73 394 -1664
2021-12-05 09:00:17 GMT 49.815445 7.605286 25,700 74 395 -1600
2021-12-05 09:00:15 GMT 49.814346 7.599287 25,750 74 395 -1600
2021-12-05 09:00:14 GMT 49.813797 7.596323 25,800 75 396 -1600
2021-12-05 09:00:12 GMT 49.812927 7.591119 25,850 77 397 -1728
2021-12-05 09:00:11 GMT 49.812515 7.588372 25,875 78 397 -1792
2021-12-05 09:00:10 GMT 49.812149 7.585843 26,125 79 398 -1856
2021-12-05 09:00:08 GMT 49.811405 7.579824 25,975 83 398 -1792
2021-12-05 09:00:07 GMT 49.811142 7.577169 26,000 83 398 -1792
2021-12-05 09:00:05 GMT 49.810684 7.571532 26,050 85 400 -1792
2021-12-05 09:00:03 GMT 49.810226 7.562714 26,150 88 401 -1920
2021-12-05 09:00:01 GMT 49.810135 7.559606 26,175 89 401 -1984
2021-12-05 09:00:00 GMT 49.810089 7.556715 26,225 91 401 -1984
2021-12-05 08:59:59 GMT 49.810104 7.554288 26,250 93 401 -2048
2021-12-05 08:59:58 GMT 49.810135 7.551583 26,275 93 401 -2048
2021-12-05 08:59:57 GMT 49.810150 7.548869 26,300 95 401 -2112
2021-12-05 08:59:55 GMT 49.810364 7.543343 26,375 96 401 -2176
2021-12-05 08:59:53 GMT 49.810802 7.537215 26,450 100 402 -2432
2021-12-05 08:59:52 GMT 49.811005 7.534525 26,500 100 402 -2432
2021-12-05 08:59:50 GMT 49.811600 7.528815 26,575 103 401 -2432
2021-12-05 08:59:49 GMT 49.811920 7.526154 26,625 103 401 -2432
2021-12-05 08:59:48 GMT 49.812424 7.522382 26,675 103 401 -2432
2021-12-05 08:59:47 GMT 49.812851 7.519399 26,725 105 401 -2432
2021-12-05 08:59:46 GMT 49.813293 7.516817 26,750 106 401 -2368
2021-12-05 08:59:45 GMT 49.814392 7.511035 26,850 109 402 -2368
2021-12-05 08:59:43 GMT 49.814945 7.508116 26,875 110 401 -2304
2021-12-05 08:59:42 GMT 49.815552 7.505444 26,925 112 402 -2304
2021-12-05 08:59:40 GMT 49.816772 7.500120 27,000 112 402 -2304
2021-12-05 08:59:38 GMT 49.818157 7.494977 27,075 115 402 -2240
2021-12-05 08:59:37 GMT 49.818901 7.492305 27,100 115 402 -2240
2021-12-05 08:59:36 GMT 49.819786 7.489484 27,150 116 402 -2240
2021-12-05 08:59:35 GMT 49.820484 7.487108 27,175 117 402 -2240
2021-12-05 08:59:33 GMT 49.822128 7.482123 27,250 120 402 -2176
2021-12-05 08:59:32 GMT 49.823959 7.477136 27,325 122 402 -2112
2021-12-05 08:59:30 GMT 49.824921 7.474678 27,350 123 403 -2048
2021-12-05 08:59:29 GMT 49.825836 7.472438 27,400 123 403 -2048
2021-12-05 08:59:28 GMT 49.826843 7.470053 27,425 124 403 -1984
2021-12-05 08:59:26 GMT 49.828724 7.465655 27,500 127 403 -1984
2021-12-05 08:59:24 GMT 49.832520 7.457621 27,650 130 403 -2048
2021-12-05 08:59:21 GMT 49.835999 7.451188 27,700 133 403 -2048
2021-12-05 08:59:18 GMT 49.838608 7.446707 27,950 140 405 -1664
2021-12-05 08:59:15 GMT 49.842735 7.440194 27,950 140 405 -1664
2021-12-05 08:59:12 GMT 49.846180 7.435369 28,100 146 406 -1856
2021-12-05 08:59:09 GMT 49.851883 7.428059 28,100 146 406 -1856
2021-12-05 08:59:05 GMT 49.856518 7.422824 28,300 146 406 -1856
2021-12-05 08:59:02 GMT 49.869179 7.410946 28,300 152 407 -1856
2021-12-05 08:58:58 GMT 49.869179 7.410946 28,450 155 408 -1792
2021-12-05 08:58:55 GMT 49.872578 7.408348 28,550 158 409 -1536
2021-12-05 08:58:52 GMT 49.878479 7.404135 28,550 158 409 -1536
2021-12-05 08:58:51 GMT 49.881134 7.402545 28,600 159 410 -1344
2021-12-05 08:58:49 GMT 49.884659 7.400448 28,650 161 411 -1280
2021-12-05 08:58:47 GMT 49.888458 7.398425 28,825 167 415 -1088
2021-12-05 08:58:44 GMT 49.892258 7.396618 28,825 167 415 -1088
2021-12-05 08:58:41 GMT 49.899391 7.393725 28,825 168 415 -1152
2021-12-05 08:58:38 GMT 49.903244 7.392426 28,825 170 416 -1344
2021-12-05 08:58:36 GMT 49.908554 7.390980 28,925 172 417 -1408
2021-12-05 08:58:34 GMT 49.910332 7.390533 28,925 173 418 -1216
2021-12-05 08:58:33 GMT 49.913216 7.389865 28,950 173 418 -1152
2021-12-05 08:58:32 GMT 49.914276 7.389679 28,975 174 420 -1088
2021-12-05 08:58:31 GMT 49.916977 7.389173 28,975 175 420 -1024
2021-12-05 08:58:29 GMT 49.920944 7.388677 29,000 177 422 -1024
2021-12-05 08:58:28 GMT 49.922791 7.388450 29,025 177 422 -960
2021-12-05 08:58:26 GMT 49.926392 7.388231 29,050 179 425 -896
2021-12-05 08:58:25 GMT 49.933548 7.388017 29,175 181 426 -896
2021-12-05 08:58:23 GMT 49.933548 7.388017 29,175 187 432 -960
2021-12-05 08:58:20 GMT 49.939453 7.388233 29,175 187 432 -960
2021-12-05 08:58:17 GMT 49.945587 7.388739 29,200 187 432 -960
2021-12-05 08:58:14 GMT 49.956043 7.390533 29,275 190 434 -1280
2021-12-05 08:58:11 GMT 49.956043 7.390533 29,350 191 436 -1472
2021-12-05 08:58:08 GMT 49.962296 7.391992 29,375 192 437 -1600
2021-12-05 08:58:06 GMT 49.966644 7.393365 29,425 194 438 -1664
2021-12-05 08:58:04 GMT 49.974247 7.396100 29,525 196 439 -1920
2021-12-05 08:58:02 GMT 49.974247 7.396100 29,525 197 441 -1920
2021-12-05 08:58:01 GMT 49.976303 7.396907 29,550 197 441 -1920
2021-12-05 08:58:00 GMT 49.978271 7.397774 29,600 198 441 -1856
2021-12-05 08:57:58 GMT 49.982254 7.399589 29,650 199 443 -1728
2021-12-05 08:57:57 GMT 49.986164 7.401519 29,700 200 444 -1536
2021-12-05 08:57:55 GMT 49.988071 7.402558 29,725 202 445 -1280
2021-12-05 08:57:53 GMT 49.991936 7.404711 29,775 202 445 -1280
2021-12-05 08:57:52 GMT 49.993893 7.405824 29,800 203 445 -1280
2021-12-05 08:57:51 GMT 49.995712 7.406954 29,825 204 446 -1280
2021-12-05 08:57:50 GMT 49.998367 7.408616 29,850 204 446 -1472
2021-12-05 08:57:48 GMT 50.007904 7.415326 29,925 206 448 -1920
2021-12-05 08:57:45 GMT 50.007904 7.415326 30,000 208 448 -2304
2021-12-05 08:57:43 GMT 50.011581 7.418221 30,100 210 448 -2944
2021-12-05 08:57:41 GMT 50.014885 7.420968 30,200 211 446 -3136
2021-12-05 08:57:40 GMT 50.016586 7.422421 30,250 211 446 -3392
2021-12-05 08:57:39 GMT 50.018471 7.424085 30,300 212 447 -3584
2021-12-05 08:57:37 GMT 50.022011 7.427426 30,425 214 446 -3968
2021-12-05 08:57:35 GMT 50.025871 7.431212 30,575 215 444 -3904
2021-12-05 08:57:34 GMT 50.027409 7.432771 30,625 216 443 -3840
2021-12-05 08:57:32 GMT 50.030621 7.436185 30,775 217 442 -3904
2021-12-05 08:57:31 GMT 50.032242 7.437889 30,825 217 442 -3904
2021-12-05 08:57:29 GMT 50.036579 7.442940 31,125 220 439 -4544
2021-12-05 08:57:26 GMT 50.040527 7.447719 31,425 222 437 -4992
2021-12-05 08:57:23 GMT 50.044308 7.452739 31,425 222 436 -5056
2021-12-05 08:57:22 GMT 50.046448 7.455560 31,550 224 434 -5056
2021-12-05 08:57:20 GMT 50.049911 7.460584 31,725 229 428 -4352
2021-12-05 08:57:15 GMT 50.056824 7.471281 32,125 229 428 -4352
2021-12-05 08:57:14 GMT 50.058151 7.473522 32,200 229 428 -4288
2021-12-05 08:57:11 GMT 50.062042 7.480279 32,400 231 427 -3712
2021-12-05 08:57:09 GMT 50.066139 7.487776 32,575 233 427 -3072
2021-12-05 08:57:07 GMT 50.067490 7.490375 32,625 233 427 -2880
2021-12-05 08:57:04 GMT 50.070557 7.496507 32,800 240 431 -1344
2021-12-05 08:57:01 GMT 50.073868 7.503588 32,875 240 431 -1344
2021-12-05 08:56:58 GMT 50.078293 7.513832 33,000 240 431 -1344
2021-12-05 08:56:55 GMT 50.079872 7.517766 33,000 241 431 -1344
2021-12-05 08:56:53 GMT 50.082458 7.524478 33,075 244 434 -1408
2021-12-05 08:56:50 GMT 50.084480 7.530014 33,075 244 434 -1408
2021-12-05 08:56:49 GMT 50.085754 7.533730 33,125 245 434 -1536
2021-12-05 08:56:48 GMT 50.086716 7.536621 33,150 245 434 -1536
2021-12-05 08:56:47 GMT 50.087509 7.539145 33,175 246 436 -1664
2021-12-05 08:56:46 GMT 50.088390 7.541966 33,200 246 436 -1664
2021-12-05 08:56:45 GMT 50.089645 7.546017 33,250 247 436 -1664
2021-12-05 08:56:44 GMT 50.090534 7.549018 33,300 249 437 -1536
2021-12-05 08:56:41 GMT 50.095184 7.566906 33,400 252 438 -1472
2021-12-05 08:56:38 GMT 50.095184 7.566906 33,425 252 438 -1472
2021-12-05 08:56:37 GMT 50.096493 7.572698 33,450 252 439 -1536
2021-12-05 08:56:35 GMT 50.097145 7.575667 33,500 253 439 -1600
2021-12-05 08:56:33 GMT 50.098389 7.581506 33,550 253 440 -1728
2021-12-05 08:56:31 GMT 50.099609 7.587693 33,600 253 440 -1664
2021-12-05 08:56:29 GMT 50.100998 7.594516 33,675 253 440 -1600
2021-12-05 08:56:28 GMT 50.101593 7.597480 33,700 253 441 -1472
2021-12-05 08:56:27 GMT 50.102783 7.603262 33,725 253 441 -1344
2021-12-05 08:56:24 GMT 50.104034 7.609443 33,775 253 441 -1280
2021-12-05 08:56:22 GMT 50.105347 7.615911 33,825 253 441 -1280
2021-12-05 08:56:21 GMT 50.106445 7.621331 33,850 253 442 -1152
2021-12-05 08:56:19 GMT 50.106995 7.624078 33,875 253 442 -1088
2021-12-05 08:56:18 GMT 50.107681 7.627403 33,900 253 442 -960
2021-12-05 08:56:16 GMT 50.108829 7.633345 33,925 253 442 -896
2021-12-05 08:56:14 GMT 50.110180 7.639952 33,950 253 442 -704
2021-12-05 08:56:12 GMT 50.111343 7.645742 33,975 253 443 -512
2021-12-05 08:56:10 GMT 50.112534 7.651616 33,975 253 443 -256
2021-12-05 08:56:08 GMT 50.113495 7.656531 34,000 253 443 -128
2021-12-05 08:56:07 GMT 50.114594 7.661952 34,000 253 443 -64
2021-12-05 08:56:05 GMT 50.115143 7.664699 34,000 253 442 -64
2021-12-05 08:56:04 GMT 50.115856 7.668160 34,000 253 442 -64
2021-12-05 08:56:03 GMT 50.116425 7.671059 34,000 253 442 -64
2021-12-05 08:56:02 GMT 50.117023 7.673950 34,000 253 442 -64
2021-12-05 08:56:00 GMT 50.118374 7.680631 34,000 253 442 -64
2021-12-05 08:55:57 GMT 50.120514 7.691246 34,000 253 442 0
2021-12-05 08:55:53 GMT 50.123291 7.705030 34,000 253 442 0
2021-12-05 08:55:50 GMT 50.124847 7.712619 34,000 253 443 0
2021-12-05 08:55:47 GMT 50.127403 7.725244 34,000 253 443 0
2021-12-05 08:55:44 GMT 50.128510 7.730833 34,000 253 443 0
2021-12-05 08:55:41 GMT 50.130615 7.741169 34,000 253 443 64
2021-12-05 08:55:38 GMT 50.132172 7.749048 34,000 253 443 64
2021-12-05 08:55:35 GMT 50.134003 7.758155 34,000 253 443 64
2021-12-05 08:55:32 GMT 50.135689 7.766517 34,000 253 443 64
2021-12-05 08:55:29 GMT 50.137527 7.775791 34,000 253 444 64
2021-12-05 08:55:26 GMT 50.139130 7.783741 34,000 253 444 64
2021-12-05 08:55:23 GMT 50.141510 7.795595 33,975 253 443 64
2021-12-05 08:55:20 GMT 50.142792 7.801955 33,975 253 444 64
2021-12-05 08:55:17 GMT 50.145092 7.813729 33,975 253 444 64
2021-12-05 08:55:14 GMT 50.146591 7.821181 33,975 253 444 0
2021-12-05 08:55:11 GMT 50.148560 7.831300 33,975 253 444 0
2021-12-05 08:55:08 GMT 50.150711 7.841998 33,975 253 444 0
2021-12-05 08:55:05 GMT 50.152401 7.850696 34,000 253 445 -64
2021-12-05 08:55:02 GMT 50.153660 7.857080 33,975 253 444 0
2021-12-05 08:54:59 GMT 50.155613 7.866879 34,000 253 445 -64
2021-12-05 08:54:56 GMT 50.157440 7.876185 34,000 253 444 0
2021-12-05 08:54:53 GMT 50.159180 7.885076 34,000 253 445 -64
2021-12-05 08:54:50 GMT 50.160969 7.894048 34,000 253 444 0
2021-12-05 08:54:48 GMT 50.162178 7.900209 34,000 253 445 -64
2021-12-05 08:54:45 GMT 50.164627 7.912541 34,000 253 445 -64
2021-12-05 08:54:42 GMT 50.166088 7.920029 34,000 253 445 -64
2021-12-05 08:54:39 GMT 50.168182 7.930496 34,000 253 446 0
2021-12-05 08:54:36 GMT 50.169998 7.939626 34,000 253 445 -64
2021-12-05 08:54:33 GMT 50.171265 7.945934 34,000 253 445 0
2021-12-05 08:54:30 GMT 50.173164 7.955512 34,000 253 445 -64
2021-12-05 08:54:28 GMT 50.174328 7.961376 34,000 253 445 -64
2021-12-05 08:54:25 GMT 50.176117 7.970436 34,000 253 445 0
2021-12-05 08:54:22 GMT 50.178726 7.983591 34,000 253 445 0
2021-12-05 08:54:19 GMT 50.180519 7.992628 34,000 254 445 0
2021-12-05 08:54:16 GMT 50.182056 8.000274 34,000 254 445 0
2021-12-05 08:54:13 GMT 50.184128 8.010840 34,000 254 445 0
2021-12-05 08:54:10 GMT 50.185318 8.016984 34,000 254 445 0
2021-12-05 08:54:08 GMT 50.186508 8.023128 34,000 254 445 0
2021-12-05 08:54:05 GMT 50.188107 8.031229 34,000 254 445 0
2021-12-05 08:54:02 GMT 50.190125 8.041486 34,000 254 445 0
2021-12-05 08:53:59 GMT 50.191925 8.050529 34,000 254 445 0
2021-12-05 08:53:56 GMT 50.193695 8.059556 34,000 254 445 0
2021-12-05 08:53:53 GMT 50.195881 8.070794 34,000 254 446 0
2021-12-05 08:53:50 GMT 50.197495 8.078926 34,000 254 446 0
2021-12-05 08:53:48 GMT 50.199142 8.087528 34,000 253 446 -64
2021-12-05 08:53:45 GMT 50.200768 8.095662 34,000 253 446 0
2021-12-05 08:53:42 GMT 50.202896 8.106537 34,000 253 446 0
2021-12-05 08:53:39 GMT 50.204086 8.112681 34,000 253 446 -64
2021-12-05 08:53:36 GMT 50.206467 8.124679 34,000 253 446 0
2021-12-05 08:53:33 GMT 50.207565 8.130328 34,025 253 447 -64
2021-12-05 08:53:30 GMT 50.209148 8.138345 34,025 253 447 -64
2021-12-05 08:53:28 GMT 50.210632 8.145856 34,025 253 447 -64
2021-12-05 08:53:25 GMT 50.212372 8.154819 34,025 253 447 -64
2021-12-05 08:53:22 GMT 50.214798 8.167106 34,025 253 447 -64
2021-12-05 08:53:19 GMT 50.215759 8.172093 34,025 253 447 -64
2021-12-05 08:53:17 GMT 50.217297 8.179915 34,025 253 447 -64
2021-12-05 08:53:14 GMT 50.219055 8.189007 34,025 253 447 -64
2021-12-05 08:53:11 GMT 50.221439 8.201145 34,050 254 447 -64
2021-12-05 08:53:08 GMT 50.222580 8.206859 34,050 254 447 -64
2021-12-05 08:53:05 GMT 50.224930 8.219035 34,050 254 448 -64
2021-12-05 08:53:02 GMT 50.226372 8.226459 34,050 254 447 -64
2021-12-05 08:52:59 GMT 50.228096 8.235366 34,050 254 447 -64
2021-12-05 08:52:56 GMT 50.230190 8.246204 34,050 254 448 0
2021-12-05 08:52:53 GMT 50.232052 8.255780 34,050 254 448 0
2021-12-05 08:52:49 GMT 50.233887 8.265188 34,050 254 447 0
2021-12-05 08:52:47 GMT 50.236893 8.280722 34,050 253 447 0
2021-12-05 08:52:44 GMT 50.236893 8.280722 34,050 253 447 64
2021-12-05 08:52:41 GMT 50.239288 8.292943 34,050 253 447 64
2021-12-05 08:52:38 GMT 50.241131 8.302324 34,050 253 447 64
2021-12-05 08:52:35 GMT 50.242664 8.310044 34,050 253 447 64
2021-12-05 08:52:32 GMT 50.244736 8.320626 34,025 253 447 64
2021-12-05 08:52:29 GMT 50.246201 8.328070 34,025 253 447 64
2021-12-05 08:52:27 GMT 50.247711 8.335732 34,025 253 447 64
2021-12-05 08:52:24 GMT 50.249222 8.343466 34,025 254 448 64
2021-12-05 08:52:21 GMT 50.251419 8.354597 34,025 254 448 0
2021-12-05 08:52:18 GMT 50.253185 8.363713 34,025 254 448 0
2021-12-05 08:52:15 GMT 50.256638 8.381412 34,025 254 448 0
2021-12-05 08:52:12 GMT 50.256638 8.381412 34,025 254 448 0
2021-12-05 08:52:09 GMT 50.258514 8.391025 34,025 254 448 64
2021-12-05 08:52:06 GMT 50.260029 8.398899 34,025 254 447 64
2021-12-05 08:52:03 GMT 50.261662 8.407213 34,000 254 447 0
2021-12-05 08:52:00 GMT 50.263824 8.418491 34,025 254 447 0
2021-12-05 08:51:57 GMT 50.265381 8.426514 34,000 254 447 0
2021-12-05 08:51:54 GMT 50.267395 8.437066 34,000 254 447 0
2021-12-05 08:51:51 GMT 50.268814 8.444439 34,000 254 447 0
2021-12-05 08:51:48 GMT 50.270550 8.453608 34,000 254 447 0
2021-12-05 08:51:46 GMT 50.272385 8.463014 34,025 254 447 0
2021-12-05 08:51:43 GMT 50.273716 8.469939 34,025 254 447 0
2021-12-05 08:51:40 GMT 50.275719 8.480480 34,000 254 447 0
2021-12-05 08:51:37 GMT 50.277489 8.489759 34,000 254 447 0
2021-12-05 08:51:34 GMT 50.279297 8.499154 34,000 254 447 0
2021-12-05 08:51:31 GMT 50.280792 8.507055 34,000 254 447 64
2021-12-05 08:51:28 GMT 50.283630 8.521902 34,000 254 447 64
2021-12-05 08:51:26 GMT 50.283630 8.521902 34,000 254 447 64
2021-12-05 08:51:23 GMT 50.286007 8.534521 34,000 254 447 64
2021-12-05 08:51:20 GMT 50.287125 8.540385 34,000 254 447 64
2021-12-05 08:51:17 GMT 50.289413 8.552278 34,000 254 447 0
2021-12-05 08:51:13 GMT 50.291546 8.563546 34,000 254 446 0
2021-12-05 08:51:10 GMT 50.293316 8.572825 33,975 254 446 0
2021-12-05 08:51:07 GMT 50.294434 8.578689 34,000 254 447 0
2021-12-05 08:51:05 GMT 50.295921 8.586409 34,000 254 445 64
2021-12-05 08:51:02 GMT 50.297745 8.595790 34,000 254 445 0
2021-12-05 08:50:59 GMT 50.299759 8.606270 34,000 254 445 0
2021-12-05 08:50:56 GMT 50.303787 8.627231 34,000 254 445 64
2021-12-05 08:50:53 GMT 50.303787 8.627231 34,000 254 445 64
2021-12-05 08:50:50 GMT 50.304886 8.633086 34,000 254 445 64
2021-12-05 08:50:47 GMT 50.307281 8.645498 34,000 254 445 64
2021-12-05 08:50:44 GMT 50.308868 8.653685 33,975 254 445 64
2021-12-05 08:50:41 GMT 50.310959 8.664650 33,975 254 445 64
2021-12-05 08:50:38 GMT 50.312077 8.670440 33,975 254 445 64
2021-12-05 08:50:35 GMT 50.313519 8.677863 33,975 254 445 0
2021-12-05 08:50:32 GMT 50.315613 8.688924 33,975 254 445 0
2021-12-05 08:50:29 GMT 50.317703 8.699871 33,975 254 445 0
2021-12-05 08:50:26 GMT 50.319122 8.707243 33,975 254 445 64
2021-12-05 08:50:23 GMT 50.322922 8.727079 33,975 254 444 64
2021-12-05 08:50:20 GMT 50.322922 8.727079 33,975 254 444 0
2021-12-05 08:50:17 GMT 50.325943 8.742949 33,975 254 444 0
2021-12-05 08:50:14 GMT 50.325943 8.742949 33,975 254 444 -64
2021-12-05 08:50:11 GMT 50.328278 8.755236 33,975 254 444 -128
2021-12-05 08:50:08 GMT 50.329998 8.764343 34,000 254 443 -64
2021-12-05 08:50:05 GMT 50.331299 8.771210 34,000 254 443 0
2021-12-05 08:50:02 GMT 50.332764 8.778944 34,000 254 443 0
2021-12-05 08:49:59 GMT 50.335052 8.791231 34,000 254 443 0
2021-12-05 08:49:56 GMT 50.336422 8.798416 34,000 254 443 0
2021-12-05 08:49:53 GMT 50.338749 8.810738 34,000 254 443 0
2021-12-05 08:49:50 GMT 50.342194 8.829148 34,000 254 443 0
2021-12-05 08:49:47 GMT 50.342194 8.829148 34,000 254 443 0
2021-12-05 08:49:45 GMT 50.342892 8.832785 34,000 254 443 0
2021-12-05 08:49:42 GMT 50.345032 8.844283 34,000 254 443 0
2021-12-05 08:49:39 GMT 50.348015 8.860102 34,000 254 443 0
2021-12-05 08:49:36 GMT 50.348015 8.860102 34,000 254 442 0
2021-12-05 08:49:34 GMT 50.349243 8.866690 34,000 254 442 0
2021-12-05 08:49:31 GMT 50.352905 8.886349 34,000 254 443 0
2021-12-05 08:49:28 GMT 50.352905 8.886349 34,000 254 443 0
2021-12-05 08:49:25 GMT 50.354393 8.894175 34,000 254 442 0
2021-12-05 08:49:22 GMT 50.356766 8.906720 34,000 254 443 0
2021-12-05 08:49:19 GMT 50.358078 8.913598 34,000 254 442 0
2021-12-05 08:49:16 GMT 50.360119 8.924462 34,000 254 442 0
2021-12-05 08:49:13 GMT 50.361237 8.930623 34,000 254 442 0
2021-12-05 08:49:10 GMT 50.363701 8.943762 34,000 254 442 0
2021-12-05 08:49:07 GMT 50.364819 8.949923 34,000 254 442 0
2021-12-05 08:49:04 GMT 50.366913 8.961281 34,000 254 441 -64
2021-12-05 08:49:01 GMT 50.368031 8.967368 34,000 254 441 -64
2021-12-05 08:48:58 GMT 50.370255 8.979155 34,000 254 441 -64
2021-12-05 08:48:55 GMT 50.371990 8.988524 34,000 254 441 -64
2021-12-05 08:48:52 GMT 50.373341 8.995873 34,000 254 441 0
2021-12-05 08:48:49 GMT 50.375015 9.004706 34,000 254 441 0
2021-12-05 08:48:46 GMT 50.376938 9.015005 34,000 254 441 0
2021-12-05 08:48:43 GMT 50.378647 9.024007 34,000 254 441 64
2021-12-05 08:48:40 GMT 50.380005 9.031195 34,000 254 441 0
2021-12-05 08:48:37 GMT 50.382156 9.042471 34,000 254 441 0
2021-12-05 08:48:34 GMT 50.385674 9.060900 34,000 254 440 0
2021-12-05 08:48:31 GMT 50.385674 9.060900 34,000 258 440 0
2021-12-05 08:48:28 GMT 50.387329 9.069937 34,000 255 440 0
2021-12-05 08:48:25 GMT 50.389259 9.080794 34,000 256 440 -64
2021-12-05 08:48:22 GMT 50.391861 9.096391 34,000 256 441 -64
2021-12-05 08:48:19 GMT 50.391861 9.096391 34,000 257 440 -64
2021-12-05 08:48:16 GMT 50.393543 9.107072 34,000 258 441 0
2021-12-05 08:48:13 GMT 50.394894 9.116054 34,000 258 440 0
2021-12-05 08:48:10 GMT 50.395981 9.123640 34,000 258 440 0
2021-12-05 08:48:07 GMT 50.397686 9.135280 34,000 258 440 0
2021-12-05 08:48:04 GMT 50.399002 9.144383 34,000 258 438 64
2021-12-05 08:48:01 GMT 50.400101 9.151828 34,000 258 438 0
2021-12-05 08:47:58 GMT 50.401550 9.161930 34,000 258 438 0
2021-12-05 08:47:55 GMT 50.402939 9.171343 34,000 258 438 0
2021-12-05 08:47:53 GMT 50.404247 9.180488 34,000 258 437 0
2021-12-05 08:47:50 GMT 50.405136 9.186811 34,000 258 438 0
2021-12-05 08:47:47 GMT 50.406693 9.197291 34,000 258 438 0
2021-12-05 08:47:44 GMT 50.408020 9.206766 34,000 258 437 0
2021-12-05 08:47:41 GMT 50.409370 9.215970 34,000 258 436 0
2021-12-05 08:47:38 GMT 50.410492 9.223890 34,000 258 437 0
2021-12-05 08:47:35 GMT 50.411930 9.233860 34,000 258 437 0
2021-12-05 08:47:33 GMT 50.412674 9.238834 34,000 258 436 -64
2021-12-05 08:47:30 GMT 50.413979 9.248039 34,000 258 436 0
2021-12-05 08:47:27 GMT 50.415207 9.256560 34,000 258 436 0
2021-12-05 08:47:24 GMT 50.416672 9.267040 34,000 258 436 0
2021-12-05 08:47:22 GMT 50.417332 9.271496 34,000 258 436 0
2021-12-05 08:47:19 GMT 50.419098 9.283953 34,000 258 436 0
2021-12-05 08:47:16 GMT 50.420242 9.291976 34,000 258 436 64
2021-12-05 08:47:13 GMT 50.421387 9.299999 34,000 258 436 64
2021-12-05 08:47:10 GMT 50.422760 9.309829 34,000 258 437 64
2021-12-05 08:47:07 GMT 50.424042 9.319008 34,000 258 437 64
2021-12-05 08:47:04 GMT 50.425140 9.326742 34,000 258 437 0
2021-12-05 08:47:02 GMT 50.426037 9.333034 34,000 258 437 0
2021-12-05 08:46:59 GMT 50.427666 9.344763 34,000 258 438 0
2021-12-05 08:46:56 GMT 50.428848 9.352979 34,000 258 438 0
2021-12-05 08:46:53 GMT 50.430176 9.362231 34,000 258 438 64
2021-12-05 08:46:50 GMT 50.431667 9.372971 34,000 258 440 0
2021-12-05 08:46:47 GMT 50.432972 9.382250 33,975 258 440 0
2021-12-05 08:46:44 GMT 50.434231 9.391232 33,975 258 440 0
2021-12-05 08:46:42 GMT 50.435303 9.398876 33,975 258 440 128
2021-12-05 08:46:39 GMT 50.436138 9.404594 33,975 258 440 128
2021-12-05 08:46:36 GMT 50.438095 9.418463 33,975 258 440 320
2021-12-05 08:46:33 GMT 50.438885 9.424191 33,950 258 440 512
2021-12-05 08:46:30 GMT 50.440567 9.435883 33,850 258 439 960
2021-12-05 08:46:27 GMT 50.441483 9.442388 33,875 258 439 960
2021-12-05 08:46:24 GMT 50.442764 9.451712 33,825 258 439 1024
2021-12-05 08:46:22 GMT 50.444000 9.460746 32,675 258 439 576
2021-12-05 08:46:19 GMT 50.445511 9.471588 33,750 258 440 1024
2021-12-05 08:46:16 GMT 50.447681 9.487288 33,575 258 441 896
2021-12-05 08:46:13 GMT 50.447681 9.487288 33,575 258 441 896
2021-12-05 08:46:10 GMT 50.448990 9.496524 33,575 258 441 896
2021-12-05 08:46:07 GMT 50.450195 9.505401 33,475 258 441 896
2021-12-05 08:46:04 GMT 50.451508 9.514883 33,200 258 441 896
2021-12-05 08:46:01 GMT 50.453018 9.525797 33,475 258 441 960
2021-12-05 08:45:58 GMT 50.453735 9.530937 33,425 258 441 960
2021-12-05 08:45:55 GMT 50.455875 9.546228 33,350 258 440 960
2021-12-05 08:45:52 GMT 50.456772 9.552612 33,325 258 440 896
2021-12-05 08:45:49 GMT 50.458202 9.562708 33,300 258 440 896
2021-12-05 08:45:45 GMT 50.459793 9.573718 33,225 258 441 896
2021-12-05 08:45:42 GMT 50.461044 9.582899 33,150 258 441 1024
2021-12-05 08:45:39 GMT 50.462532 9.593514 33,125 258 441 1216
2021-12-05 08:45:35 GMT 50.464371 9.606460 33,025 258 441 1408
2021-12-05 08:45:32 GMT 50.465370 9.613779 32,925 258 442 1152
2021-12-05 08:45:29 GMT 50.466721 9.623430 32,900 258 442 1088
2021-12-05 08:45:26 GMT 50.467934 9.631892 32,775 258 442 704
2021-12-05 08:45:23 GMT 50.469269 9.641443 32,800 258 442 768
2021-12-05 08:45:20 GMT 50.471146 9.655052 32,750 258 442 640
2021-12-05 08:45:17 GMT 50.472565 9.665222 32,725 258 442 640
2021-12-05 08:45:13 GMT 50.475941 9.689422 32,650 258 438 384
2021-12-05 08:45:09 GMT 50.475941 9.689422 32,650 258 439 448
2021-12-05 08:45:06 GMT 50.477051 9.697314 32,625 258 439 448
2021-12-05 08:45:03 GMT 50.478455 9.707460 32,600 258 439 384
2021-12-05 08:45:00 GMT 50.479294 9.713866 32,575 258 438 448
2021-12-05 08:44:57 GMT 50.480782 9.724533 32,550 258 437 512
2021-12-05 08:44:54 GMT 50.481812 9.732152 32,550 258 437 576
2021-12-05 08:44:51 GMT 50.484646 9.752742 32,500 258 436 512
2021-12-05 08:44:48 GMT 50.484646 9.752742 32,500 258 437 512
2021-12-05 08:44:44 GMT 50.486088 9.762986 32,450 258 436 768
2021-12-05 08:44:41 GMT 50.487392 9.772487 32,425 258 436 1024
2021-12-05 08:44:37 GMT 50.490742 9.796538 32,325 258 435 1216
2021-12-05 08:44:34 GMT 50.490742 9.796538 32,250 258 437 1280
2021-12-05 08:44:31 GMT 50.491699 9.803491 32,175 258 437 1152
2021-12-05 08:44:28 GMT 50.493164 9.814206 32,050 258 436 960
2021-12-05 08:44:25 GMT 50.494656 9.824969 32,050 258 436 960
2021-12-05 08:44:22 GMT 50.495773 9.833197 32,000 258 436 832
2021-12-05 08:44:19 GMT 50.497307 9.844121 32,000 258 436 768
2021-12-05 08:44:16 GMT 50.498146 9.850357 31,950 258 435 640
2021-12-05 08:44:13 GMT 50.499634 9.861120 31,900 259 435 704
2021-12-05 08:44:10 GMT 50.500671 9.868686 31,875 258 435 640
2021-12-05 08:44:07 GMT 50.502010 9.878416 31,850 259 435 704
2021-12-05 08:44:04 GMT 50.503235 9.887551 31,775 259 435 896
2021-12-05 08:44:01 GMT 50.504383 9.896306 31,575 258 430 768
2021-12-05 08:43:58 GMT 50.507080 9.916173 31,700 259 434 896
2021-12-05 08:43:55 GMT 50.507080 9.916173 31,675 259 433 704
2021-12-05 08:43:52 GMT 50.508133 9.924196 31,650 259 433 768
2021-12-05 08:43:49 GMT 50.509369 9.933448 31,575 258 432 704
2021-12-05 08:43:46 GMT 50.511086 9.945819 31,575 258 432 576
2021-12-05 08:43:43 GMT 50.513031 9.960118 31,525 258 430 768
2021-12-05 08:43:40 GMT 50.513031 9.960118 31,525 258 431 576
2021-12-05 08:43:37 GMT 50.514496 9.970816 31,450 258 430 1408
2021-12-05 08:43:34 GMT 50.515732 9.979995 31,425 258 430 832
2021-12-05 08:43:31 GMT 50.516739 9.987295 31,400 258 430 1024
2021-12-05 08:43:28 GMT 50.518478 10.000088 31,350 258 430 1408
2021-12-05 08:43:25 GMT 50.519466 10.007580 31,275 258 430 1408
2021-12-05 08:43:22 GMT 50.520954 10.018195 31,225 258 430 1408
2021-12-05 08:43:19 GMT 50.521500 10.022350 31,200 258 430 1408
2021-12-05 08:43:16 GMT 50.524960 10.047442 30,925 259 430 960
2021-12-05 08:43:12 GMT 50.524960 10.047442 31,025 258 430 960
2021-12-05 08:43:09 GMT 50.526169 10.056350 30,975 259 430 1152
2021-12-05 08:43:06 GMT 50.527222 10.064127 30,850 259 430 1152
2021-12-05 08:43:03 GMT 50.528450 10.073424 30,850 259 430 1152
2021-12-05 08:43:00 GMT 50.529896 10.084039 30,775 259 430 1216
2021-12-05 08:42:57 GMT 50.531105 10.092872 30,725 259 430 1216
2021-12-05 08:42:54 GMT 50.532532 10.103447 30,675 259 430 1088
2021-12-05 08:42:51 GMT 50.533356 10.109518 30,625 259 430 1088
2021-12-05 08:42:48 GMT 50.534828 10.120338 30,550 259 430 1280
2021-12-05 08:42:45 GMT 50.535946 10.128875 30,475 258 431 1856
2021-12-05 08:42:42 GMT 50.537201 10.138005 30,325 258 431 2048
2021-12-05 08:42:39 GMT 50.538460 10.147507 30,300 258 432 1408
2021-12-05 08:42:36 GMT 50.539673 10.156210 30,225 258 432 1408
2021-12-05 08:42:33 GMT 50.540771 10.164522 30,025 259 432 1088
2021-12-05 08:42:30 GMT 50.542370 10.176309 30,100 259 432 960
2021-12-05 08:42:27 GMT 50.543579 10.185217 30,050 259 432 896
2021-12-05 08:42:24 GMT 50.544571 10.192710 30,000 259 432 1024
2021-12-05 08:42:21 GMT 50.547352 10.213425 29,975 258 431 1152
2021-12-05 08:42:18 GMT 50.547352 10.213425 29,900 258 431 1152
2021-12-05 08:42:15 GMT 50.548691 10.223067 29,825 258 431 1088
2021-12-05 08:42:12 GMT 50.549561 10.229500 29,775 258 431 1024
2021-12-05 08:42:09 GMT 50.551167 10.241633 29,750 258 431 960
2021-12-05 08:42:05 GMT 50.552444 10.250895 29,675 258 431 1216
2021-12-05 08:42:02 GMT 50.553680 10.259969 29,600 259 431 1408
2021-12-05 08:41:59 GMT 50.555328 10.272289 29,500 259 431 1536
2021-12-05 08:41:56 GMT 50.556568 10.281347 29,400 259 432 1792
2021-12-05 08:41:53 GMT 50.557571 10.288841 29,300 259 432 1792
2021-12-05 08:41:50 GMT 50.558571 10.296342 29,300 259 433 1856
2021-12-05 08:41:47 GMT 50.559780 10.305547 29,200 259 434 2048
2021-12-05 08:41:44 GMT 50.561005 10.314933 29,100 259 434 2112
2021-12-05 08:41:41 GMT 50.562527 10.326183 28,975 259 436 2112
2021-12-05 08:41:38 GMT 50.564762 10.343257 28,850 259 437 1856
2021-12-05 08:41:35 GMT 50.564762 10.343257 28,800 259 438 1600
2021-12-05 08:41:32 GMT 50.566406 10.355843 28,725 259 438 1344
2021-12-05 08:41:29 GMT 50.567276 10.362186 28,625 259 437 1216
2021-12-05 08:41:26 GMT 50.568283 10.370154 28,600 259 437 1280
2021-12-05 08:41:23 GMT 50.569427 10.378900 28,525 259 434 704
2021-12-05 08:41:20 GMT 50.572536 10.402642 28,475 259 437 896
2021-12-05 08:41:17 GMT 50.572536 10.402642 28,425 259 436 832
2021-12-05 08:41:14 GMT 50.573730 10.411859 28,400 259 436 896
2021-12-05 08:41:11 GMT 50.574692 10.418942 28,375 259 435 768
2021-12-05 08:41:08 GMT 50.575703 10.426916 28,225 259 435 704
2021-12-05 08:41:05 GMT 50.577026 10.436939 28,300 259 433 640
2021-12-05 08:41:02 GMT 50.578079 10.444673 28,250 259 433 640
2021-12-05 08:40:59 GMT 50.579704 10.457129 28,225 259 432 640
2021-12-05 08:40:56 GMT 50.580914 10.466333 28,200 259 432 704
2021-12-05 08:40:53 GMT 50.581787 10.472573 28,150 259 430 832
2021-12-05 08:40:50 GMT 50.583195 10.483481 28,025 259 429 896
2021-12-05 08:40:47 GMT 50.584305 10.491871 28,050 259 429 1088
2021-12-05 08:40:44 GMT 50.585953 10.504375 28,000 259 428 1088
2021-12-05 08:40:41 GMT 50.587189 10.513482 27,925 259 427 768
2021-12-05 08:40:38 GMT 50.587898 10.518815 27,925 259 427 640
2021-12-05 08:40:35 GMT 50.589523 10.531191 27,875 259 426 640
2021-12-05 08:40:32 GMT 50.590393 10.537840 27,775 259 426 768
2021-12-05 08:40:29 GMT 50.591854 10.549250 27,100 259 425 1216
2021-12-05 08:40:26 GMT 50.592682 10.555404 27,750 259 425 1152
2021-12-05 08:40:23 GMT 50.594055 10.566029 27,700 259 425 1408
2021-12-05 08:40:20 GMT 50.596161 10.582075 27,575 259 425 1600
2021-12-05 08:40:17 GMT 50.596161 10.582075 27,525 259 425 1472
2021-12-05 08:40:14 GMT 50.597488 10.592156 27,500 259 425 1408
2021-12-05 08:40:10 GMT 50.599026 10.603959 27,375 259 424 1088
2021-12-05 08:40:07 GMT 50.600235 10.613516 27,325 259 424 832
2021-12-05 08:40:04 GMT 50.601654 10.624358 27,300 259 422 704
2021-12-05 08:40:01 GMT 50.602283 10.629050 27,275 259 423 704
2021-12-05 08:39:58 GMT 50.603668 10.639464 27,200 259 421 640
2021-12-05 08:39:55 GMT 50.604797 10.648350 27,200 259 420 640
2021-12-05 08:39:52 GMT 50.606239 10.659114 27,175 259 420 576
2021-12-05 08:39:49 GMT 50.607403 10.668096 27,125 259 419 576
2021-12-05 08:39:46 GMT 50.608704 10.678060 26,125 259 417 640
2021-12-05 08:39:43 GMT 50.609730 10.685689 27,025 259 416 640
2021-12-05 08:39:40 GMT 50.610672 10.692950 27,025 259 416 640
2021-12-05 08:39:37 GMT 50.611874 10.701946 27,000 259 415 640
2021-12-05 08:39:34 GMT 50.613464 10.713983 26,975 259 414 576
2021-12-05 08:39:31 GMT 50.614014 10.718392 26,925 259 413 640
2021-12-05 08:39:28 GMT 50.615387 10.728728 26,925 259 412 640
2021-12-05 08:39:25 GMT 50.616619 10.738245 26,875 259 411 704
2021-12-05 08:39:22 GMT 50.617783 10.747004 26,850 259 411 704
2021-12-05 08:39:19 GMT 50.618958 10.755904 26,650 259 408 832
2021-12-05 08:39:16 GMT 50.621155 10.772818 26,750 259 408 832
2021-12-05 08:39:13 GMT 50.621155 10.772818 26,750 259 408 832
2021-12-05 08:39:10 GMT 50.622162 10.780483 26,700 259 406 640
2021-12-05 08:39:07 GMT 50.623444 10.790237 26,675 259 406 576
2021-12-05 08:39:04 GMT 50.624859 10.801342 26,625 259 404 576
2021-12-05 08:39:01 GMT 50.625641 10.807222 26,600 259 403 576
2021-12-05 08:38:58 GMT 50.626785 10.816112 26,600 259 401 704
2021-12-05 08:38:55 GMT 50.628120 10.826581 26,550 259 401 832
2021-12-05 08:38:52 GMT 50.629211 10.834977 26,500 259 400 1088
2021-12-05 08:38:49 GMT 50.630127 10.842133 26,425 259 400 1472
2021-12-05 08:38:46 GMT 50.631409 10.852396 26,350 259 400 1536
2021-12-05 08:38:43 GMT 50.632370 10.859841 26,300 259 400 1472
2021-12-05 08:38:40 GMT 50.633240 10.866518 26,050 257 399 1536
2021-12-05 08:38:37 GMT 50.634357 10.874758 26,150 255 399 1408
2021-12-05 08:38:34 GMT 50.635941 10.884777 26,075 251 396 1344
2021-12-05 08:38:31 GMT 50.637863 10.894101 26,000 248 395 1216
2021-12-05 08:38:28 GMT 50.642487 10.911592 25,950 218 373 448
2021-12-05 08:38:25 GMT 50.642487 10.911592 25,900 241 390 960
2021-12-05 08:38:22 GMT 50.644867 10.918603 25,875 240 390 896
2021-12-05 08:38:19 GMT 50.647671 10.926052 25,825 237 388 960
2021-12-05 08:38:16 GMT 50.649719 10.930963 25,775 234 386 1088
2021-12-05 08:38:12 GMT 50.653770 10.939710 25,675 229 384 1088
2021-12-05 08:38:09 GMT 50.657494 10.946911 25,650 228 384 1152
2021-12-05 08:38:05 GMT 50.662289 10.955076 25,550 223 380 896
2021-12-05 08:38:02 GMT 50.665924 10.960597 25,525 221 380 640
2021-12-05 08:37:59 GMT 50.669998 10.966379 25,500 219 379 576
2021-12-05 08:37:56 GMT 50.673599 10.970993 25,475 217 377 960
2021-12-05 08:37:53 GMT 50.678513 10.976975 25,425 216 377 1216
2021-12-05 08:37:50 GMT 50.681980 10.980835 25,300 215 377 1728
2021-12-05 08:37:47 GMT 50.687622 10.987070 25,250 215 377 1728
2021-12-05 08:37:43 GMT 50.694077 10.994122 25,100 215 377 1152
2021-12-05 08:37:40 GMT 50.697018 10.997391 25,025 217 375 384
2021-12-05 08:37:37 GMT 50.701950 11.002808 25,000 216 378 448
2021-12-05 08:37:34 GMT 50.706886 11.008224 24,975 220 370 1024
2021-12-05 08:37:31 GMT 50.710377 11.012268 24,950 217 375 384
2021-12-05 08:37:28 GMT 50.713943 11.016392 24,900 219 372 832
2021-12-05 08:37:25 GMT 50.717377 11.020475 24,900 219 372 832
2021-12-05 08:37:22 GMT 50.722061 11.026230 24,850 220 370 1024
2021-12-05 08:37:19 GMT 50.725616 11.030719 24,800 220 370 1024
2021-12-05 08:37:16 GMT 50.729790 11.036072 24,725 221 369 1024
2021-12-05 08:37:13 GMT 50.733673 11.041186 24,675 221 369 1024
2021-12-05 08:37:10 GMT 50.738819 11.047974 24,650 221 368 1024
2021-12-05 08:37:07 GMT 50.741428 11.051407 24,600 221 367 1024
2021-12-05 08:37:04 GMT 50.746170 11.057739 24,525 221 366 1024
2021-12-05 08:37:01 GMT 50.749901 11.062622 24,500 221 366 1024
2021-12-05 08:36:58 GMT 50.753902 11.067963 24,425 221 365 1024
2021-12-05 08:36:55 GMT 50.757397 11.072617 24,125 221 363 960
2021-12-05 08:36:52 GMT 50.760681 11.076965 24,375 221 364 960
2021-12-05 08:36:48 GMT 50.766998 11.085354 23,900 221 356 1280
2021-12-05 08:36:45 GMT 50.770660 11.090164 24,225 221 358 1152
2021-12-05 08:36:42 GMT 50.773911 11.094558 24,175 220 361 1024
2021-12-05 08:36:39 GMT 50.778484 11.100540 24,150 221 360 1024
2021-12-05 08:36:36 GMT 50.781647 11.104813 24,075 221 359 1088
2021-12-05 08:36:33 GMT 50.785374 11.109695 24,000 221 359 1088
2021-12-05 08:36:30 GMT 50.790306 11.116257 23,975 221 358 1152
2021-12-05 08:36:27 GMT 50.792961 11.119843 23,925 221 358 1216
2021-12-05 08:36:24 GMT 50.797428 11.125717 23,825 221 356 1344
2021-12-05 08:36:21 GMT 50.800232 11.129447 23,525 221 356 1344
2021-12-05 08:36:18 GMT 50.804832 11.135559 23,700 221 355 1408
2021-12-05 08:36:15 GMT 50.809906 11.142273 23,650 221 355 1344
2021-12-05 08:36:12 GMT 50.817490 11.152385 23,550 221 354 1344
2021-12-05 08:36:08 GMT 50.817490 11.152385 23,475 221 354 1472
2021-12-05 08:36:05 GMT 50.824661 11.161957 23,375 221 354 1472
2021-12-05 08:36:02 GMT 50.824661 11.161957 23,325 221 354 1536
2021-12-05 08:35:58 GMT 50.830719 11.170052 23,225 221 354 1664
2021-12-05 08:35:54 GMT 50.834793 11.175545 23,125 221 353 1664
2021-12-05 08:35:51 GMT 50.838116 11.180038 23,125 221 353 1664
2021-12-05 08:35:48 GMT 50.842121 11.185303 22,950 221 352 1664
2021-12-05 08:35:45 GMT 50.846310 11.191025 22,825 221 352 1536
2021-12-05 08:35:42 GMT 50.849426 11.195145 22,750 221 352 1536
2021-12-05 08:35:39 GMT 50.854340 11.201749 22,700 221 352 1536
2021-12-05 08:35:36 GMT 50.856949 11.205238 22,625 221 352 1536
2021-12-05 08:35:33 GMT 50.860062 11.209395 22,625 221 352 1536
2021-12-05 08:35:30 GMT 50.863720 11.214294 22,500 221 351 1536
2021-12-05 08:35:27 GMT 50.867981 11.220010 22,425 221 351 1536
2021-12-05 08:35:24 GMT 50.872833 11.226468 22,325 221 350 1472
2021-12-05 08:35:21 GMT 50.876083 11.230774 22,225 221 350 1472
2021-12-05 08:35:18 GMT 50.879826 11.235809 22,200 221 350 1536
2021-12-05 08:35:15 GMT 50.886623 11.244888 22,050 221 349 1536
2021-12-05 08:35:12 GMT 50.886623 11.244888 21,950 221 348 1472
2021-12-05 08:35:09 GMT 50.891876 11.251856 21,925 221 348 1472
2021-12-05 08:35:06 GMT 50.894909 11.255875 21,850 221 348 1408
2021-12-05 08:35:03 GMT 50.897552 11.259427 21,800 221 347 1344
2021-12-05 08:35:00 GMT 50.901443 11.264698 21,725 221 346 1408
2021-12-05 08:34:57 GMT 50.905293 11.269836 21,700 221 346 1344
2021-12-05 08:34:53 GMT 50.910141 11.276278 21,600 221 344 1088
2021-12-05 08:34:50 GMT 50.914398 11.281994 21,500 221 343 1344
2021-12-05 08:34:47 GMT 50.917191 11.285780 19,725 221 348 3072
2021-12-05 08:34:44 GMT 50.920887 11.290665 21,375 221 341 1472
2021-12-05 08:34:41 GMT 50.925522 11.296915 21,350 221 341 1536
2021-12-05 08:34:37 GMT 50.929546 11.302261 21,275 221 340 1664
2021-12-05 08:34:33 GMT 50.934402 11.308792 21,100 221 340 1984
2021-12-05 08:34:30 GMT 50.937458 11.312943 21,000 221 341 2048
2021-12-05 08:34:27 GMT 50.942394 11.319504 20,825 221 356 2752
2021-12-05 08:34:24 GMT 50.946304 11.324752 20,775 221 341 2560
2021-12-05 08:34:21 GMT 50.952354 11.332932 20,675 221 342 2624
2021-12-05 08:34:18 GMT 50.952354 11.332932 20,450 221 344 2816
2021-12-05 08:34:15 GMT 50.955894 11.337662 20,400 221 345 2880
2021-12-05 08:34:12 GMT 50.959385 11.342392 20,050 221 346 2688
2021-12-05 08:34:09 GMT 50.963974 11.348506 20,100 221 346 2688
2021-12-05 08:34:06 GMT 50.966831 11.352386 20,000 221 348 2816
2021-12-05 08:34:02 GMT 50.971802 11.359047 19,775 221 349 3136
2021-12-05 08:33:59 GMT 50.974792 11.363144 19,700 221 351 3136
2021-12-05 08:33:56 GMT 50.978985 11.368790 19,400 221 353 3264
2021-12-05 08:33:53 GMT 50.983612 11.375081 19,300 221 354 3264
2021-12-05 08:33:49 GMT 50.988510 11.381613 19,050 221 356 2816
2021-12-05 08:33:46 GMT 50.992905 11.387552 18,900 221 358 2496
2021-12-05 08:33:43 GMT 50.996254 11.392059 18,700 221 358 2368
2021-12-05 08:33:37 GMT 51.006355 11.405640 18,550 221 359 1792
2021-12-05 08:33:34 GMT 51.006355 11.405640 18,475 221 358 1408
2021-12-05 08:33:31 GMT 51.011383 11.412430 18,450 221 357 1344
2021-12-05 08:33:27 GMT 51.016411 11.419220 18,350 221 356 1536
2021-12-05 08:33:24 GMT 51.019066 11.422806 18,275 221 355 1600
2021-12-05 08:33:21 GMT 51.022659 11.427563 18,200 221 354 1792
2021-12-05 08:33:18 GMT 51.026932 11.433411 18,100 221 354 2112
2021-12-05 08:33:15 GMT 51.030762 11.438475 17,975 221 354 2176
2021-12-05 08:33:11 GMT 51.035961 11.445465 17,875 221 354 2176
2021-12-05 08:33:08 GMT 51.040237 11.451243 17,700 221 354 2176
2021-12-05 08:33:05 GMT 51.042667 11.454544 17,600 221 354 2112
2021-12-05 08:33:02 GMT 51.046669 11.459885 17,525 221 354 1920
2021-12-05 08:32:59 GMT 51.050491 11.465050 17,425 221 353 1728
2021-12-05 08:32:56 GMT 51.054977 11.471137 17,325 221 352 1728
2021-12-05 08:32:53 GMT 51.061611 11.480103 17,225 221 351 1728
2021-12-05 08:32:50 GMT 51.061611 11.480103 17,200 221 351 1728
2021-12-05 08:32:46 GMT 51.066101 11.486206 17,050 221 351 1728
2021-12-05 08:32:43 GMT 51.069580 11.490883 16,925 221 349 1728
2021-12-05 08:32:40 GMT 51.073746 11.496599 16,850 221 348 1792
2021-12-05 08:32:37 GMT 51.078606 11.503143 16,725 221 348 1920
2021-12-05 08:32:34 GMT 51.082657 11.508636 16,700 221 348 1920
2021-12-05 08:32:30 GMT 51.086243 11.513523 16,525 221 347 1856
2021-12-05 08:32:27 GMT 51.090569 11.519394 16,500 221 346 1856
2021-12-05 08:32:23 GMT 51.094162 11.524287 16,325 221 346 1856
2021-12-05 08:32:20 GMT 51.098621 11.530304 16,300 221 345 1856
2021-12-05 08:32:16 GMT 51.102676 11.535793 16,100 221 344 1984
2021-12-05 08:32:13 GMT 51.106861 11.541519 16,025 221 344 2112
2021-12-05 08:32:10 GMT 51.110550 11.546482 15,900 221 344 2112
2021-12-05 08:32:06 GMT 51.115128 11.552718 15,750 221 343 2112
2021-12-05 08:32:03 GMT 51.118744 11.557617 15,625 221 343 2112
2021-12-05 08:32:00 GMT 51.123688 11.564372 15,575 221 343 2112
2021-12-05 08:31:57 GMT 51.127251 11.569214 15,450 221 342 2112
2021-12-05 08:31:54 GMT 51.129765 11.572647 15,350 221 341 2112
2021-12-05 08:31:51 GMT 51.133862 11.578140 15,225 221 341 2048
2021-12-05 08:31:48 GMT 51.137283 11.582856 15,150 221 341 2112
2021-12-05 08:31:45 GMT 51.141312 11.588287 15,050 221 341 2240
2021-12-05 08:31:42 GMT 51.147263 11.596366 14,875 221 340 2176
2021-12-05 08:31:39 GMT 51.147263 11.596366 14,875 221 340 2176
2021-12-05 08:31:36 GMT 51.151367 11.601944 14,750 221 340 2176
2021-12-05 08:31:33 GMT 51.155869 11.608095 14,625 221 340 2048
2021-12-05 08:31:30 GMT 51.159439 11.612920 14,525 221 339 1984
2021-12-05 08:31:27 GMT 51.162918 11.617671 14,425 221 339 1984
2021-12-05 08:31:24 GMT 51.165844 11.621628 14,200 221 337 1792
2021-12-05 08:31:21 GMT 51.168869 11.625762 14,275 221 335 1920
2021-12-05 08:31:18 GMT 51.172440 11.630587 14,200 221 336 1792
2021-12-05 08:31:15 GMT 51.177715 11.637726 14,025 221 335 1984
2021-12-05 08:31:12 GMT 51.179993 11.640831 13,925 221 334 2240
2021-12-05 08:31:09 GMT 51.183517 11.645656 13,900 221 334 2304
2021-12-05 08:31:05 GMT 51.188282 11.652069 13,725 221 334 2496
2021-12-05 08:31:01 GMT 51.192535 11.657905 13,550 221 327 1536
2021-12-05 08:30:58 GMT 51.195869 11.662445 13,450 221 334 2688
2021-12-05 08:30:55 GMT 51.199722 11.667703 13,225 221 334 2496
2021-12-05 08:30:52 GMT 51.204391 11.674087 13,075 221 334 2432
2021-12-05 08:30:48 GMT 51.207973 11.679001 13,000 221 334 2368
2021-12-05 08:30:44 GMT 51.213745 11.686859 12,725 221 334 2240
2021-12-05 08:30:41 GMT 51.216156 11.690121 12,725 221 334 2240
2021-12-05 08:30:38 GMT 51.219749 11.695023 12,625 221 334 2240
2021-12-05 08:30:34 GMT 51.224407 11.701431 12,450 221 333 2048
2021-12-05 08:30:31 GMT 51.228271 11.706772 12,325 221 332 1984
2021-12-05 08:30:28 GMT 51.231808 11.711578 12,275 221 332 1984
2021-12-05 08:30:25 GMT 51.235626 11.716843 12,150 221 331 1920
2021-12-05 08:30:21 GMT 51.240047 11.722870 11,925 221 327 1536
2021-12-05 08:30:17 GMT 51.243576 11.727757 11,950 221 328 1664
2021-12-05 08:30:14 GMT 51.247776 11.733475 11,825 221 326 1344
2021-12-05 08:30:11 GMT 51.251221 11.738205 11,775 221 323 1216
2021-12-05 08:30:08 GMT 51.255550 11.744156 11,700 221 322 1216
2021-12-05 08:30:03 GMT 51.260715 11.751328 11,525 221 319 1216
2021-12-05 08:30:00 GMT 51.263512 11.755142 11,525 221 316 1216
2021-12-05 08:29:57 GMT 51.267189 11.760178 11,500 221 314 1216
2021-12-05 08:29:53 GMT 51.271797 11.766510 11,400 221 310 1024
2021-12-05 08:29:50 GMT 51.274868 11.770706 11,325 221 307 1024
2021-12-05 08:29:47 GMT 51.278130 11.775208 11,300 221 307 960
2021-12-05 08:29:43 GMT 51.282970 11.781845 11,225 221 303 1024
2021-12-05 08:29:40 GMT 51.285530 11.785355 11,150 221 299 1088
2021-12-05 08:29:36 GMT 51.289078 11.790186 11,125 221 299 1088
2021-12-05 08:29:32 GMT 51.293770 11.796570 11,050 221 295 1152
2021-12-05 08:29:29 GMT 51.296749 11.800690 10,925 221 292 1152
2021-12-05 08:29:26 GMT 51.300018 11.805181 10,875 221 290 1152
2021-12-05 08:29:23 GMT 51.303127 11.809464 10,850 221 288 1152
2021-12-05 08:29:20 GMT 51.307175 11.815033 10,800 222 286 1152
2021-12-05 08:29:17 GMT 51.308666 11.817169 10,750 221 284 1152
2021-12-05 08:29:14 GMT 51.312103 11.821883 10,700 221 280 1152
2021-12-05 08:29:11 GMT 51.314667 11.825446 10,575 221 279 1216
2021-12-05 08:29:08 GMT 51.319000 11.831436 10,575 221 276 1280
2021-12-05 08:29:05 GMT 51.320351 11.833344 10,550 221 275 1280
2021-12-05 08:29:02 GMT 51.323238 11.837311 10,475 221 272 1280
2021-12-05 08:28:59 GMT 51.327053 11.842575 10,400 221 268 1280
2021-12-05 08:28:56 GMT 51.330078 11.846695 10,325 221 266 1344
2021-12-05 08:28:52 GMT 51.333759 11.851654 10,225 221 263 1280
2021-12-05 08:28:48 GMT 51.337601 11.856920 10,125 221 259 1280
2021-12-05 08:28:45 GMT 51.339981 11.860187 10,075 221 257 1408
2021-12-05 08:28:42 GMT 51.343163 11.864395 10,000 221 256 1408
2021-12-05 08:28:39 GMT 51.345840 11.867981 9,925 221 253 1472
2021-12-05 08:28:36 GMT 51.347534 11.870282 9,850 220 251 1536
2021-12-05 08:28:33 GMT 51.350796 11.874695 9,775 220 249 1984
2021-12-05 08:28:30 GMT 51.352657 11.877136 9,750 220 249 1984
2021-12-05 08:28:27 GMT 51.356644 11.882382 9,575 220 249 2432
2021-12-05 08:28:23 GMT 51.359573 11.886242 9,450 219 249 2432
2021-12-05 08:28:19 GMT 51.363178 11.890945 9,225 219 249 2560
2021-12-05 08:28:16 GMT 51.365662 11.894036 8,675 218 251 3072
2021-12-05 08:28:13 GMT 51.368626 11.897736 9,025 218 250 2816
2021-12-05 08:28:09 GMT 51.373280 11.903534 8,775 218 251 3008
2021-12-05 08:28:06 GMT 51.374771 11.905365 8,575 217 252 3136
2021-12-05 08:28:03 GMT 51.377518 11.908722 8,450 217 253 3072
2021-12-05 08:28:00 GMT 51.380219 11.911926 8,325 217 254 2944
2021-12-05 08:27:57 GMT 51.383568 11.915894 8,175 217 255 2688
2021-12-05 08:27:54 GMT 51.386314 11.919174 8,025 212 254 2560
2021-12-05 08:27:51 GMT 51.389572 11.922913 7,950 214 255 2304
2021-12-05 08:27:45 GMT 51.395161 11.928864 7,675 212 254 2624
2021-12-05 08:27:42 GMT 51.398483 11.932117 7,575 213 255 2688
2021-12-05 08:27:38 GMT 51.401596 11.935235 7,350 222 254 2496
2021-12-05 08:27:35 GMT 51.405773 11.939697 7,250 220 254 2560
2021-12-05 08:27:31 GMT 51.409332 11.944440 7,075 230 254 2496
2021-12-05 08:27:27 GMT 51.412811 11.950601 6,900 236 254 2432
2021-12-05 08:27:24 GMT 51.414413 11.954387 6,725 244 253 2304
2021-12-05 08:27:20 GMT 51.416435 11.960144 6,625 251 252 2176
2021-12-05 08:27:16 GMT 51.418030 11.966487 6,300 263 249 1984
2021-12-05 08:27:13 GMT 51.419037 11.971831 6,350 263 249 1984
2021-12-05 08:27:10 GMT 51.419861 11.978215 6,250 264 248 2048
2021-12-05 08:27:06 GMT 51.420391 11.985397 6,175 266 246 2112
2021-12-05 08:27:03 GMT 51.420624 11.990128 6,050 266 245 2112
2021-12-05 08:27:00 GMT 51.420914 11.996254 5,975 266 244 2112
2021-12-05 08:26:55 GMT 51.421322 12.004242 5,725 266 241 2240
2021-12-05 08:26:52 GMT 51.421600 12.009659 5,725 266 241 2240
2021-12-05 08:26:49 GMT 51.421829 12.015034 5,575 266 240 2240
2021-12-05 08:26:46 GMT 51.422161 12.021561 5,450 266 239 2240
2021-12-05 08:26:43 GMT 51.422379 12.025724 5,250 266 237 2176
2021-12-05 08:26:40 GMT 51.422745 12.033296 5,200 266 236 2176
2021-12-05 08:26:35 GMT 51.423092 12.040329 5,050 266 235 2240
2021-12-05 08:26:32 GMT 51.423340 12.045618 4,875 266 233 2240
2021-12-05 08:26:29 GMT 51.423569 12.050295 4,850 266 232 2240
2021-12-05 08:26:25 GMT 51.423931 12.057419 4,675 266 230 2176
2021-12-05 08:26:22 GMT 51.424164 12.062531 4,475 266 228 2048
2021-12-05 08:26:19 GMT 51.424442 12.067795 4,475 266 227 1984
2021-12-05 08:26:14 GMT 51.424812 12.074966 4,325 266 224 1984
2021-12-05 08:26:11 GMT 51.425049 12.080002 4,175 266 216 1792
2021-12-05 08:26:08 GMT 51.425282 12.085419 4,125 266 221 2112
2021-12-05 08:26:02 GMT 51.426041 12.101515 3,700 266 204 704
2021-12-05 08:25:58 GMT 51.426041 12.101515 3,800 266 213 1344
2021-12-05 08:25:55 GMT 51.426361 12.107824 3,725 266 208 960
2021-12-05 08:25:52 GMT 51.426491 12.111511 3,675 266 203 576
2021-12-05 08:25:49 GMT 51.426773 12.117623 3,650 266 200 768
2021-12-05 08:25:44 GMT 51.427048 12.123413 3,575 266 195 1152
2021-12-05 08:25:41 GMT 51.427231 12.127570 3,475 266 192 1152
2021-12-05 08:25:38 GMT 51.427467 12.131958 3,475 267 191 1152
2021-12-05 08:25:34 GMT 51.427734 12.138185 3,400 267 186 1088
2021-12-05 08:25:31 GMT 51.427826 12.141006 3,325 266 184 1088
2021-12-05 08:25:28 GMT 51.428074 12.145844 3,300 266 182 1088
2021-12-05 08:25:24 GMT 51.428329 12.151695 3,225 266 178 1088
2021-12-05 08:25:21 GMT 51.428513 12.156075 3,150 266 176 1024
2021-12-05 08:25:17 GMT 51.428696 12.159935 3,100 267 174 1024
2021-12-05 08:25:13 GMT 51.428925 12.164983 3,050 266 170 1024
2021-12-05 08:25:10 GMT 51.429096 12.168961 3,000 266 168 1024
2021-12-05 08:25:07 GMT 51.429245 12.172703 2,925 266 166 1088
2021-12-05 08:25:03 GMT 51.429474 12.177602 2,850 266 163 1152
2021-12-05 08:25:00 GMT 51.429653 12.181931 2,800 266 160 1152
2021-12-05 08:24:56 GMT 51.429890 12.187271 2,700 266 158 1280
2021-12-05 08:24:53 GMT 51.430027 12.190170 2,650 266 156 1344
2021-12-05 08:24:50 GMT 51.430206 12.193414 2,575 266 155 1408
2021-12-05 08:24:46 GMT 51.430435 12.197497 2,500 266 154 1408
2021-12-05 08:24:43 GMT 51.430618 12.201431 2,425 266 153 1728
2021-12-05 08:24:40 GMT 51.430820 12.205582 2,300 266 153 2432
2021-12-05 08:24:32 GMT 51.431259 12.213456 1,900 266 154 3584
2021-12-05 08:24:29 GMT 51.431423 12.217102 1,700 266 156 3520
2021-12-05 08:24:23 GMT 51.431797 12.225113 1,325 267 161 3392
2021-12-05 08:24:19 GMT 51.431992 12.229787 1,075 267 163 3520
2021-12-05 08:23:58 GMT 51.432999 12.252725 775 266 125 0
2021-12-05 08:23:50 GMT 51.433334 12.259827 750 264 78
2021-12-05 08:23:24 GMT 51.433605 12.266365 0 267 4
2021-12-05 08:23:19 GMT 51.433636 12.266483 0 275 7
2021-12-05 08:21:07 GMT 51.430038 12.256470 0 84 17
2021-12-05 08:20:57 GMT 51.429989 12.255342 0 84 15
2021-12-05 08:20:47 GMT 51.429932 12.254247 0 87 15
2021-12-05 08:20:37 GMT 51.429874 12.253208 0 50 16
2021-12-05 08:20:27 GMT 51.429329 12.252636 0 14 16
2021-12-05 08:20:18 GMT 51.428539 12.252331 0 14 22
2021-12-05 08:20:07 GMT 51.427563 12.251964 0 14 21
2021-12-05 08:19:57 GMT 51.426617 12.251606 0 14 24
2021-12-05 08:19:47 GMT 51.425549 12.251186 0 14 23
2021-12-05 08:19:37 GMT 51.424534 12.250805 0 14 23
2021-12-05 08:19:27 GMT 51.423523 12.250424 0 14 22
2021-12-05 08:19:15 GMT 51.422508 12.250023 0 14 23
2021-12-05 08:19:06 GMT 51.421532 12.249645 0 14 23
2021-12-05 08:18:56 GMT 51.420559 12.249273 0 14 20
2021-12-05 08:18:47 GMT 51.419636 12.248917 0 14 21
2021-12-05 08:18:36 GMT 51.418682 12.248554 0 14 19
2021-12-05 08:18:18 GMT 51.417400 12.248058 0 14 13
2021-12-05 08:18:11 GMT 51.417004 12.247906 0 36 11
2021-12-05 08:18:04 GMT 51.416714 12.247524 0 73 12
2021-12-05 08:17:51 GMT 51.416611 12.246211 0 84 17
2021-12-05 08:17:44 GMT 51.416576 12.245376 0 84 17
2021-12-05 08:17:35 GMT 51.416519 12.244263 0 84 17
2021-12-05 08:17:26 GMT 51.416462 12.243038 0 84 17
2021-12-05 08:17:18 GMT 51.416424 12.242203 0 84 17
2021-12-05 08:17:15 GMT 51.416405 12.241757 0 84 17
2021-12-05 08:17:10 GMT 51.416382 12.241108 0 84 17
2021-12-05 08:17:04 GMT 51.416351 12.240467 0 84 17
2021-12-05 08:16:55 GMT 51.416294 12.239437 0 84 17
2021-12-05 08:16:39 GMT 51.416210 12.237563 0 84 16
2021-12-05 08:16:35 GMT 51.416191 12.237091 0 84 16
2021-12-05 08:16:32 GMT 51.416176 12.236691 0 84 16
2021-12-05 08:16:23 GMT 51.416119 12.235633 0 84 16
2021-12-05 08:16:13 GMT 51.416073 12.234535 0 84 16
2021-12-05 08:16:02 GMT 51.415993 12.233091 0 90 16
2021-12-05 08:15:58 GMT 51.415993 12.232742 0 95 16
2021-12-05 08:15:54 GMT 51.416027 12.232227 0 104 16
2021-12-05 08:15:44 GMT 51.416210 12.231142 0 104 16
2021-12-05 08:15:37 GMT 51.416382 12.230196 0 106 17
2021-12-05 08:15:33 GMT 51.416424 12.229900 0 106 17
2021-12-05 08:15:29 GMT 51.416519 12.229361 0 104 16
2021-12-05 08:15:23 GMT 51.416622 12.228813 0 104 15
2021-12-05 08:15:13 GMT 51.416782 12.227821 0 104 11
2021-12-05 08:15:02 GMT 51.416912 12.227058 0 104 10
2021-12-05 08:14:53 GMT 51.417027 12.226391 0 104 12
2021-12-05 08:14:43 GMT 51.417179 12.225494 0 104 13
2021-12-05 08:14:32 GMT 51.417332 12.224573 0 104 14
2021-12-05 08:14:23 GMT 51.417480 12.223700 0 104 12
2021-12-05 08:14:12 GMT 51.417629 12.222865 0 104 10
2021-12-05 08:14:01 GMT 51.417744 12.222160 0 104 7
2021-12-05 08:13:50 GMT 51.417835 12.221659 0 104 7
2021-12-05 08:13:42 GMT 51.417904 12.221251 0 104 8
2021-12-05 08:13:32 GMT 51.417995 12.220731 0 104 9
2021-12-05 08:13:23 GMT 51.418110 12.220045 0 106 10
2021-12-05 08:13:12 GMT 51.418240 12.219353 0 104 11
2021-12-05 08:13:01 GMT 51.418354 12.218590 0 104 7
2021-12-05 08:12:52 GMT 51.418419 12.218263 0 106 4
2021-12-05 08:12:31 GMT 51.418461 12.217999 0 106 0
2021-12-05 08:12:20 GMT 51.418465 12.218003 0 106 0
2021-12-05 08:12:01 GMT 51.418461 12.217999 0 106 0
2021-12-05 08:11:50 GMT 51.418465 12.218003 0 106 0
2021-12-05 08:10:41 GMT 51.418461 12.217999 0 106 0
2021-12-05 08:10:29 GMT 51.418465 12.217985 0 106 0
2021-12-05 08:10:10 GMT 51.418461 12.217999 0 106 2
2021-12-05 08:10:00 GMT 51.418442 12.218170 0 104 3
2021-12-05 08:09:49 GMT 51.418499 12.218356 0 78 4
2021-12-05 08:09:40 GMT 51.418625 12.218486 0 53 4
2021-12-05 08:09:29 GMT 51.418785 12.218552 0 25 4
2021-12-05 08:09:20 GMT 51.418961 12.218628 0 19 4
2021-12-05 08:09:09 GMT 51.419159 12.218704 0 16 4
2021-12-05 08:08:53 GMT 51.419357 12.218801 0 14 0
2021-12-05 08:08:23 GMT 51.419357 12.218783 0 14 0
2021-12-05 08:08:08 GMT 51.419369 12.218801 0 14 0

Making use of Plane Finder data

You are free to use the raw flight data, aircraft information and images provided in this report for your own purposes provided the data is correctly attributed to Plane Finder. We ask that you please credit Plane Finder and link to planefinder.net in close proximity to the content.

Optionally one of the following logos (no smaller then 150x24px) can be used and must link to planefinder.net

Embedding the Plane Finder map

You are welcome to embed the Plane Finder playback map on your website to offer visitors a more interactive experience. We suggest using the following HTML code:

<iframe src="//planefinder.net/data/report/DE1462-D-AIAF-7700-squawk-2021-12-05/map" width="800" height="600" seamless="seamless"></iframe>

Where our data comes from

Plane Finder has a global network of data feeds and antenna radars that receive data broadcast directly from aircraft. The primary technologies used are ADS-B and MLAT. We also show feeds from the FAA and a FLARM glider feed.

Click here to find out more about the Plane Finder network.

How we collect our data